AFR24 LFPG-KLAX
Flight info
| Callsign | AFR24 |
|---|---|
| Flight time | 10h 50m |
| Altitude | 36000 |
| Route | ATREX DCT VESAN DCT RATUK DCT SOVAT L613 SANDY DCT OKSAW DCT TEWXI DCT LIPGO DCT REVNU/N0487F320 DCT SUNOT/M084F320 DCT 58N020W 60N030W 61N040W 61N050W/M084F340 DCT PIDSO/N0495F340 DCT LOPVI DCT FASSA DCT 58N070W 56N080W 5330N09000W 5030N10000W DCT KU12U/N0479F360 DCT KU03S DCT KU81Q DCT KU63O DCT WINEN DCT LAKRR Q73 HAKMN ANJLL4 |
| Aircraft | B77W/H-SDE1E2E3FGHIJ2J3J4J5M1RWXY/LB1D1 |
Departure
| Time | 2026-05-06 13:43 |
|---|---|
| Airport | Charles de Gaulle International Airport (LFPG) |
Arrival
| Time | 2026-05-07 00:33 |
|---|---|
| Airport | Los Angeles International Airport (KLAX) |
| Time | Latitude | Longitude | Altitude | Speed | Heading |
|---|---|---|---|---|---|
| 2026-05-06 12:37 | 49.00746 | 2.58329 | 408 ft | 0 kts | 86° |
| 2026-05-06 13:03 | 49.00746 | 2.58322 | 408 ft | 2 kts | 86° |
| 2026-05-06 13:03 | 49.00744 | 2.58296 | 408 ft | 3 kts | 86° |
| 2026-05-06 13:04 | 49.00743 | 2.58266 | 408 ft | 3 kts | 86° |
| 2026-05-06 13:04 | 49.00742 | 2.58236 | 408 ft | 3 kts | 86° |
| 2026-05-06 13:04 | 49.00740 | 2.58205 | 408 ft | 3 kts | 86° |
| 2026-05-06 13:04 | 49.00740 | 2.58199 | 408 ft | 0 kts | 86° |
| 2026-05-06 13:18 | 49.00738 | 2.58148 | 408 ft | 0 kts | 86° |
| 2026-05-06 13:18 | 49.00682 | 2.58154 | 408 ft | 0 kts | 40° |
| 2026-05-06 13:19 | 49.00681 | 2.58207 | 408 ft | 0 kts | 7° |
| 2026-05-06 13:29 | 49.00682 | 2.58207 | 408 ft | 0 kts | 7° |
| 2026-05-06 13:33 | 49.00682 | 2.58208 | 408 ft | 0 kts | 7° |
| 2026-05-06 13:35 | 49.00683 | 2.58208 | 408 ft | 2 kts | 7° |
| 2026-05-06 13:35 | 49.00726 | 2.58214 | 408 ft | 11 kts | 4° |
| 2026-05-06 13:36 | 49.00827 | 2.58226 | 408 ft | 15 kts | 2° |
| 2026-05-06 13:36 | 49.00931 | 2.58225 | 408 ft | 15 kts | 358° |
| 2026-05-06 13:36 | 49.01036 | 2.58217 | 408 ft | 15 kts | 356° |
| 2026-05-06 13:36 | 49.01140 | 2.58201 | 408 ft | 15 kts | 352° |
| 2026-05-06 13:37 | 49.01244 | 2.58180 | 408 ft | 15 kts | 353° |
| 2026-05-06 13:37 | 49.01347 | 2.58164 | 408 ft | 15 kts | 354° |
| 2026-05-06 13:37 | 49.01459 | 2.58147 | 408 ft | 17 kts | 354° |
| 2026-05-06 13:37 | 49.01577 | 2.58133 | 408 ft | 17 kts | 356° |
| 2026-05-06 13:38 | 49.01696 | 2.58120 | 408 ft | 17 kts | 356° |
| 2026-05-06 13:38 | 49.01814 | 2.58106 | 408 ft | 17 kts | 355° |
| 2026-05-06 13:38 | 49.01929 | 2.58065 | 408 ft | 17 kts | 335° |
| 2026-05-06 13:38 | 49.02025 | 2.57961 | 408 ft | 17 kts | 311° |
| 2026-05-06 13:39 | 49.02077 | 2.57804 | 408 ft | 17 kts | 284° |
| 2026-05-06 13:39 | 49.02085 | 2.57624 | 408 ft | 17 kts | 270° |
| 2026-05-06 13:39 | 49.02080 | 2.57444 | 408 ft | 17 kts | 266° |
| 2026-05-06 13:39 | 49.02065 | 2.57265 | 408 ft | 17 kts | 262° |
| 2026-05-06 13:40 | 49.02081 | 2.57092 | 408 ft | 17 kts | 309° |
| 2026-05-06 13:40 | 49.02192 | 2.57051 | 408 ft | 18 kts | 358° |
| 2026-05-06 13:40 | 49.02282 | 2.57033 | 408 ft | 7 kts | 346° |
| 2026-05-06 13:40 | 49.02346 | 2.56979 | 408 ft | 14 kts | 304° |
| 2026-05-06 13:41 | 49.02357 | 2.56895 | 408 ft | 0 kts | 270° |
| 2026-05-06 13:42 | 49.02356 | 2.56834 | 408 ft | 23 kts | 268° |
| 2026-05-06 13:42 | 49.02327 | 2.56273 | 408 ft | 86 kts | 266° |
| 2026-05-06 13:42 | 49.02262 | 2.55030 | 408 ft | 148 kts | 264° |
| 2026-05-06 13:43 | 49.02166 | 2.53209 | 461 ft | 196 kts | 268° |
| 2026-05-06 13:43 | 49.02052 | 2.51118 | 1295 ft | 202 kts | 265° |
| 2026-05-06 13:43 | 49.01794 | 2.48858 | 1949 ft | 228 kts | 262° |
| 2026-05-06 13:43 | 49.01541 | 2.46376 | 2562 ft | 244 kts | 267° |
| 2026-05-06 13:44 | 49.01630 | 2.43816 | 3018 ft | 241 kts | 291° |
| 2026-05-06 13:44 | 49.02422 | 2.41648 | 3483 ft | 236 kts | 313° |
| 2026-05-06 13:44 | 49.03596 | 2.39904 | 4077 ft | 233 kts | 325° |
| 2026-05-06 13:44 | 49.04913 | 2.38443 | 4708 ft | 236 kts | 327° |
| 2026-05-06 13:45 | 49.06289 | 2.37089 | 5337 ft | 242 kts | 329° |
| 2026-05-06 13:45 | 49.09226 | 2.34366 | 6601 ft | 251 kts | 329° |
| 2026-05-06 13:45 | 49.10836 | 2.33324 | 7150 ft | 251 kts | 347° |
| 2026-05-06 13:46 | 49.12542 | 2.32857 | 7774 ft | 249 kts | 355° |
| 2026-05-06 13:46 | 49.14273 | 2.32665 | 8400 ft | 250 kts | 358° |
| 2026-05-06 13:46 | 49.16022 | 2.32613 | 9028 ft | 252 kts | 0° |
| 2026-05-06 13:46 | 49.17784 | 2.32639 | 9654 ft | 255 kts | 360° |
| 2026-05-06 13:47 | 49.19550 | 2.32693 | 10274 ft | 260 kts | 360° |
| 2026-05-06 13:47 | 49.21395 | 2.32771 | 10914 ft | 272 kts | 360° |
| 2026-05-06 13:47 | 49.23334 | 2.32869 | 11566 ft | 288 kts | 360° |
| 2026-05-06 13:47 | 49.25411 | 2.32969 | 12217 ft | 309 kts | 359° |
| 2026-05-06 13:48 | 49.27628 | 2.33072 | 12863 ft | 329 kts | 359° |
| 2026-05-06 13:48 | 49.29975 | 2.33189 | 13504 ft | 344 kts | 359° |
| 2026-05-06 13:48 | 49.32391 | 2.33321 | 14135 ft | 350 kts | 359° |
| 2026-05-06 13:48 | 49.34820 | 2.33468 | 14755 ft | 349 kts | 359° |
| 2026-05-06 13:49 | 49.37231 | 2.33624 | 15372 ft | 346 kts | 359° |
| 2026-05-06 13:49 | 49.39185 | 2.33757 | 15876 ft | 343 kts | 359° |
| 2026-05-06 13:49 | 49.41570 | 2.33937 | 16493 ft | 344 kts | 3° |
| 2026-05-06 13:49 | 49.43977 | 2.34168 | 17119 ft | 349 kts | 4° |
| 2026-05-06 13:50 | 49.46431 | 2.34421 | 17748 ft | 358 kts | 1° |
| 2026-05-06 13:50 | 49.48952 | 2.34646 | 18324 ft | 370 kts | 359° |
| 2026-05-06 13:50 | 49.51564 | 2.34827 | 18891 ft | 382 kts | 359° |
| 2026-05-06 13:50 | 49.54249 | 2.34986 | 19455 ft | 390 kts | 359° |
| 2026-05-06 13:51 | 49.56973 | 2.35142 | 20014 ft | 393 kts | 359° |
| 2026-05-06 13:51 | 49.59703 | 2.35325 | 20562 ft | 391 kts | 2° |
| 2026-05-06 13:51 | 49.62367 | 2.35555 | 21103 ft | 385 kts | 4° |
| 2026-05-06 13:51 | 49.65020 | 2.35805 | 21647 ft | 380 kts | 4° |
| 2026-05-06 13:52 | 49.67676 | 2.36063 | 21871 ft | 387 kts | 4° |
| 2026-05-06 13:52 | 49.70402 | 2.36320 | 21931 ft | 397 kts | 4° |
| 2026-05-06 13:52 | 49.73189 | 2.36565 | 21936 ft | 404 kts | 4° |
| 2026-05-06 13:52 | 49.75980 | 2.36571 | 22172 ft | 396 kts | 355° |
| 2026-05-06 13:53 | 49.78669 | 2.35946 | 22601 ft | 387 kts | 348° |
| 2026-05-06 13:53 | 49.81264 | 2.34947 | 23044 ft | 382 kts | 344° |
| 2026-05-06 13:53 | 49.83759 | 2.33752 | 23486 ft | 380 kts | 342° |
| 2026-05-06 13:53 | 49.86257 | 2.32416 | 23936 ft | 381 kts | 340° |
| 2026-05-06 13:54 | 49.88753 | 2.31000 | 24386 ft | 384 kts | 340° |
| 2026-05-06 13:54 | 49.91268 | 2.29532 | 24838 ft | 389 kts | 340° |
| 2026-05-06 13:54 | 49.93817 | 2.28025 | 25288 ft | 395 kts | 339° |
| 2026-05-06 13:54 | 49.96407 | 2.26488 | 25691 ft | 403 kts | 340° |
| 2026-05-06 13:55 | 49.99051 | 2.24918 | 26077 ft | 411 kts | 340° |
| 2026-05-06 13:55 | 50.01744 | 2.23321 | 26459 ft | 417 kts | 340° |
| 2026-05-06 13:55 | 50.04438 | 2.21727 | 26832 ft | 422 kts | 340° |
| 2026-05-06 13:55 | 50.07194 | 2.20100 | 27210 ft | 425 kts | 340° |
| 2026-05-06 13:56 | 50.09961 | 2.18471 | 27587 ft | 426 kts | 340° |
| 2026-05-06 13:56 | 50.12746 | 2.16834 | 27819 ft | 430 kts | 340° |
| 2026-05-06 13:56 | 50.15566 | 2.15180 | 27924 ft | 436 kts | 340° |
| 2026-05-06 13:56 | 50.18417 | 2.13509 | 27960 ft | 440 kts | 340° |
| 2026-05-06 13:57 | 50.19893 | 2.12645 | 27957 ft | 441 kts | 341° |
| 2026-05-06 13:57 | 50.21886 | 2.11485 | 27952 ft | 442 kts | 340° |
| 2026-05-06 13:57 | 50.24724 | 2.09846 | 27951 ft | 439 kts | 342° |
| 2026-05-06 13:57 | 50.27576 | 2.08228 | 27961 ft | 434 kts | 342° |
| 2026-05-06 13:58 | 50.30409 | 2.06632 | 27964 ft | 431 kts | 342° |
| 2026-05-06 13:58 | 50.33220 | 2.05035 | 27978 ft | 429 kts | 340° |
| 2026-05-06 13:58 | 50.35888 | 2.03044 | 28380 ft | 421 kts | 332° |
| 2026-05-06 13:58 | 50.38339 | 2.00634 | 28821 ft | 413 kts | 326° |
| 2026-05-06 13:59 | 50.40637 | 1.97982 | 29266 ft | 408 kts | 323° |
| 2026-05-06 13:59 | 50.42835 | 1.95190 | 29714 ft | 405 kts | 321° |
| 2026-05-06 13:59 | 50.44942 | 1.92363 | 30154 ft | 404 kts | 320° |
| 2026-05-06 13:59 | 50.47050 | 1.89452 | 30604 ft | 403 kts | 319° |
| 2026-05-06 14:00 | 50.49139 | 1.86526 | 31049 ft | 403 kts | 318° |
| 2026-05-06 14:00 | 50.51225 | 1.83588 | 31496 ft | 403 kts | 318° |
| 2026-05-06 14:00 | 50.53318 | 1.80642 | 31812 ft | 407 kts | 318° |
| 2026-05-06 14:00 | 50.55452 | 1.77650 | 31918 ft | 416 kts | 318° |
| 2026-05-06 14:01 | 50.57645 | 1.74590 | 31948 ft | 427 kts | 319° |
| 2026-05-06 14:01 | 50.59902 | 1.71460 | 31952 ft | 438 kts | 319° |
| 2026-05-06 14:01 | 50.64566 | 1.65039 | 31951 ft | 458 kts | 319° |
| 2026-05-06 14:02 | 50.69442 | 1.58295 | 31957 ft | 473 kts | 318° |
| 2026-05-06 14:02 | 50.74440 | 1.51370 | 31952 ft | 481 kts | 319° |
| 2026-05-06 14:03 | 50.79457 | 1.44443 | 31943 ft | 475 kts | 319° |
| 2026-05-06 14:03 | 50.84353 | 1.37672 | 31975 ft | 468 kts | 318° |
| 2026-05-06 14:04 | 50.89248 | 1.30872 | 31991 ft | 469 kts | 318° |
| 2026-05-06 14:04 | 50.94156 | 1.24013 | 31989 ft | 473 kts | 319° |
| 2026-05-06 14:05 | 50.99109 | 1.17061 | 31991 ft | 477 kts | 318° |
| 2026-05-06 14:05 | 51.04036 | 1.10039 | 32001 ft | 480 kts | 313° |
| 2026-05-06 14:06 | 51.07889 | 1.01416 | 32009 ft | 480 kts | 298° |
| 2026-05-06 14:06 | 51.10741 | 0.91815 | 32005 ft | 480 kts | 292° |
| 2026-05-06 14:07 | 51.13193 | 0.81919 | 31997 ft | 480 kts | 290° |
| 2026-05-06 14:07 | 51.15492 | 0.72022 | 31994 ft | 479 kts | 289° |
| 2026-05-06 14:08 | 51.17773 | 0.62068 | 31991 ft | 478 kts | 289° |
| 2026-05-06 14:08 | 51.20062 | 0.52114 | 31994 ft | 478 kts | 289° |
| 2026-05-06 14:09 | 51.22364 | 0.42185 | 31996 ft | 478 kts | 289° |
| 2026-05-06 14:09 | 51.24667 | 0.32316 | 31997 ft | 478 kts | 289° |
| 2026-05-06 14:10 | 51.26994 | 0.22386 | 31999 ft | 478 kts | 290° |
| 2026-05-06 14:10 | 51.29326 | 0.12453 | 31994 ft | 477 kts | 290° |
| 2026-05-06 14:11 | 51.31640 | 0.02591 | 31995 ft | 477 kts | 290° |
| 2026-05-06 14:11 | 51.33000 | -0.03207 | 31994 ft | 477 kts | 289° |
| 2026-05-06 14:12 | 51.35305 | -0.13051 | 31993 ft | 475 kts | 289° |
| 2026-05-06 14:12 | 51.37611 | -0.22939 | 31989 ft | 474 kts | 289° |
| 2026-05-06 14:13 | 51.39909 | -0.32834 | 31993 ft | 474 kts | 289° |
| 2026-05-06 14:13 | 51.42202 | -0.42741 | 31991 ft | 475 kts | 289° |
| 2026-05-06 14:14 | 51.44491 | -0.52675 | 31993 ft | 475 kts | 289° |
| 2026-05-06 14:14 | 51.46755 | -0.62542 | 31993 ft | 475 kts | 289° |
| 2026-05-06 14:15 | 51.49028 | -0.72490 | 31994 ft | 475 kts | 289° |
| 2026-05-06 14:15 | 51.51289 | -0.82435 | 31994 ft | 474 kts | 289° |
| 2026-05-06 14:16 | 51.53537 | -0.92367 | 31993 ft | 473 kts | 289° |
| 2026-05-06 14:16 | 51.55756 | -1.02228 | 31993 ft | 472 kts | 289° |
| 2026-05-06 14:17 | 51.57981 | -1.12154 | 31992 ft | 472 kts | 289° |
| 2026-05-06 14:17 | 51.60197 | -1.22087 | 31993 ft | 472 kts | 289° |
| 2026-05-06 14:18 | 51.62405 | -1.32030 | 31993 ft | 472 kts | 289° |
| 2026-05-06 14:18 | 51.64605 | -1.41980 | 31994 ft | 472 kts | 289° |
| 2026-05-06 14:19 | 51.66780 | -1.51877 | 31993 ft | 472 kts | 289° |
| 2026-05-06 14:19 | 51.68962 | -1.61845 | 31993 ft | 472 kts | 289° |
| 2026-05-06 14:20 | 51.71407 | -1.71654 | 31999 ft | 472 kts | 293° |
| 2026-05-06 14:20 | 51.74196 | -1.81234 | 31997 ft | 472 kts | 295° |
| 2026-05-06 14:21 | 51.77125 | -1.90627 | 31999 ft | 472 kts | 296° |
| 2026-05-06 14:21 | 51.80166 | -2.00024 | 32003 ft | 472 kts | 298° |
| 2026-05-06 14:22 | 51.83453 | -2.09204 | 32000 ft | 472 kts | 300° |
| 2026-05-06 14:22 | 51.86873 | -2.18274 | 32012 ft | 472 kts | 301° |
| 2026-05-06 14:23 | 51.90314 | -2.27254 | 32020 ft | 473 kts | 301° |
| 2026-05-06 14:23 | 51.93794 | -2.36309 | 32021 ft | 474 kts | 301° |
| 2026-05-06 14:24 | 51.97274 | -2.45390 | 32022 ft | 474 kts | 301° |
| 2026-05-06 14:24 | 52.00743 | -2.54481 | 32021 ft | 474 kts | 301° |
| 2026-05-06 14:25 | 52.04177 | -2.63528 | 32022 ft | 473 kts | 301° |
| 2026-05-06 14:25 | 52.07620 | -2.72640 | 32022 ft | 472 kts | 301° |
| 2026-05-06 14:26 | 52.11045 | -2.81746 | 32022 ft | 472 kts | 301° |
| 2026-05-06 14:26 | 52.14457 | -2.90854 | 32022 ft | 471 kts | 301° |
| 2026-05-06 14:27 | 52.17837 | -2.99917 | 32022 ft | 471 kts | 301° |
| 2026-05-06 14:27 | 52.21233 | -3.09056 | 32020 ft | 471 kts | 300° |
| 2026-05-06 14:28 | 52.24621 | -3.18206 | 32017 ft | 471 kts | 300° |
| 2026-05-06 14:28 | 52.27996 | -3.27358 | 32018 ft | 471 kts | 300° |
| 2026-05-06 14:29 | 52.31344 | -3.36470 | 32016 ft | 471 kts | 300° |
| 2026-05-06 14:29 | 52.34709 | -3.45660 | 32017 ft | 471 kts | 300° |
| 2026-05-06 14:30 | 52.38062 | -3.54854 | 32017 ft | 471 kts | 300° |
| 2026-05-06 14:30 | 52.41410 | -3.64061 | 32012 ft | 470 kts | 299° |
| 2026-05-06 14:31 | 52.44741 | -3.73264 | 32012 ft | 469 kts | 299° |
| 2026-05-06 14:31 | 52.48036 | -3.82397 | 32010 ft | 468 kts | 299° |
| 2026-05-06 14:32 | 52.51344 | -3.91604 | 32010 ft | 468 kts | 299° |
| 2026-05-06 14:32 | 52.54643 | -4.00819 | 32009 ft | 468 kts | 299° |
| 2026-05-06 14:33 | 52.57940 | -4.10058 | 32005 ft | 468 kts | 298° |
| 2026-05-06 14:33 | 52.61205 | -4.19244 | 32005 ft | 468 kts | 298° |
| 2026-05-06 14:34 | 52.64485 | -4.28505 | 32008 ft | 468 kts | 298° |
| 2026-05-06 14:34 | 52.67751 | -4.37764 | 32007 ft | 468 kts | 298° |
| 2026-05-06 14:35 | 52.71013 | -4.47044 | 32008 ft | 468 kts | 298° |
| 2026-05-06 14:35 | 52.74243 | -4.56265 | 32010 ft | 467 kts | 298° |
| 2026-05-06 14:36 | 52.77481 | -4.65543 | 32009 ft | 466 kts | 298° |
| 2026-05-06 14:36 | 52.80705 | -4.74819 | 32005 ft | 465 kts | 298° |
| 2026-05-06 14:37 | 52.83917 | -4.84092 | 32005 ft | 464 kts | 298° |
| 2026-05-06 14:37 | 52.87094 | -4.93300 | 32006 ft | 464 kts | 298° |
| 2026-05-06 14:38 | 52.90281 | -5.02572 | 32000 ft | 463 kts | 298° |
| 2026-05-06 14:38 | 52.93458 | -5.11851 | 31997 ft | 463 kts | 298° |
| 2026-05-06 14:39 | 52.96626 | -5.21133 | 31995 ft | 462 kts | 297° |
| 2026-05-06 14:39 | 52.99761 | -5.30358 | 31995 ft | 462 kts | 297° |
| 2026-05-06 14:40 | 53.02910 | -5.39663 | 31995 ft | 462 kts | 297° |
| 2026-05-06 14:40 | 53.06049 | -5.48981 | 31994 ft | 462 kts | 297° |
| 2026-05-06 14:41 | 53.09171 | -5.58319 | 31993 ft | 462 kts | 297° |
| 2026-05-06 14:41 | 53.12259 | -5.67606 | 31993 ft | 462 kts | 297° |
| 2026-05-06 14:42 | 53.15359 | -5.76972 | 31993 ft | 461 kts | 297° |
| 2026-05-06 14:42 | 53.18447 | -5.86341 | 31993 ft | 461 kts | 297° |
| 2026-05-06 14:43 | 53.21531 | -5.95733 | 31993 ft | 461 kts | 296° |
| 2026-05-06 14:43 | 53.24604 | -6.05130 | 31993 ft | 461 kts | 296° |
| 2026-05-06 14:44 | 53.27650 | -6.14481 | 31993 ft | 461 kts | 296° |
| 2026-05-06 14:45 | 53.32234 | -6.28619 | 31993 ft | 461 kts | 296° |
| 2026-05-06 14:45 | 53.35278 | -6.38056 | 31993 ft | 461 kts | 296° |
| 2026-05-06 14:46 | 53.38297 | -6.47448 | 31993 ft | 461 kts | 296° |
| 2026-05-06 14:46 | 53.41328 | -6.56913 | 31993 ft | 461 kts | 296° |
| 2026-05-06 14:47 | 53.44352 | -6.66397 | 31993 ft | 461 kts | 296° |
| 2026-05-06 14:47 | 53.47369 | -6.75893 | 31993 ft | 461 kts | 296° |
| 2026-05-06 14:48 | 53.50358 | -6.85337 | 31993 ft | 461 kts | 296° |
| 2026-05-06 14:48 | 53.53364 | -6.94874 | 31993 ft | 461 kts | 296° |
| 2026-05-06 14:49 | 53.56356 | -7.04404 | 31993 ft | 461 kts | 296° |
| 2026-05-06 14:49 | 53.59339 | -7.13941 | 31993 ft | 461 kts | 296° |
| 2026-05-06 14:50 | 53.62296 | -7.23435 | 31993 ft | 461 kts | 296° |
| 2026-05-06 14:50 | 53.65264 | -7.33003 | 31993 ft | 461 kts | 296° |
| 2026-05-06 14:51 | 53.68224 | -7.42582 | 31993 ft | 460 kts | 295° |
| 2026-05-06 14:51 | 53.71177 | -7.52174 | 31993 ft | 460 kts | 296° |
| 2026-05-06 14:52 | 53.74099 | -7.61709 | 31993 ft | 460 kts | 296° |
| 2026-05-06 14:52 | 53.77037 | -7.71329 | 31993 ft | 461 kts | 295° |
| 2026-05-06 14:53 | 53.79967 | -7.80966 | 31993 ft | 461 kts | 296° |
| 2026-05-06 14:53 | 53.82892 | -7.90622 | 31993 ft | 461 kts | 295° |
| 2026-05-06 14:54 | 53.85794 | -8.00242 | 31994 ft | 462 kts | 296° |
| 2026-05-06 14:54 | 53.88706 | -8.09934 | 31994 ft | 462 kts | 296° |
| 2026-05-06 14:55 | 53.91609 | -8.19637 | 31994 ft | 461 kts | 295° |
| 2026-05-06 14:55 | 53.94505 | -8.29350 | 31995 ft | 461 kts | 295° |
| 2026-05-06 14:56 | 53.97370 | -8.39004 | 31996 ft | 461 kts | 295° |
| 2026-05-06 14:56 | 54.00244 | -8.48726 | 32002 ft | 460 kts | 295° |
| 2026-05-06 14:57 | 54.03107 | -8.58453 | 32002 ft | 460 kts | 295° |
| 2026-05-06 14:57 | 54.05963 | -8.68195 | 32000 ft | 460 kts | 295° |
| 2026-05-06 14:58 | 54.08812 | -8.77953 | 32001 ft | 460 kts | 295° |
| 2026-05-06 14:58 | 54.11633 | -8.87656 | 31998 ft | 460 kts | 295° |
| 2026-05-06 14:59 | 54.14466 | -8.97439 | 31998 ft | 460 kts | 295° |
| 2026-05-06 14:59 | 54.17292 | -9.07240 | 32001 ft | 461 kts | 295° |
| 2026-05-06 15:00 | 54.20116 | -9.17077 | 32001 ft | 461 kts | 295° |
| 2026-05-06 15:00 | 54.22933 | -9.26934 | 32000 ft | 461 kts | 295° |
| 2026-05-06 15:01 | 54.25720 | -9.36723 | 32000 ft | 461 kts | 295° |
| 2026-05-06 15:01 | 54.28519 | -9.46597 | 31997 ft | 461 kts | 295° |
| 2026-05-06 15:02 | 54.31311 | -9.56483 | 31995 ft | 461 kts | 295° |
| 2026-05-06 15:02 | 54.34090 | -9.66383 | 31995 ft | 461 kts | 296° |
| 2026-05-06 15:03 | 54.36844 | -9.76220 | 31993 ft | 461 kts | 295° |
| 2026-05-06 15:03 | 54.39609 | -9.86133 | 31993 ft | 461 kts | 297° |
| 2026-05-06 15:04 | 54.42394 | -9.96039 | 31994 ft | 460 kts | 297° |
| 2026-05-06 15:04 | 54.45184 | -10.05948 | 31993 ft | 461 kts | 298° |
| 2026-05-06 15:05 | 54.48767 | -10.14945 | 31995 ft | 459 kts | 310° |
| 2026-05-06 15:05 | 54.53019 | -10.23106 | 31995 ft | 457 kts | 314° |
| 2026-05-06 15:06 | 54.57473 | -10.30926 | 31993 ft | 456 kts | 316° |
| 2026-05-06 15:06 | 54.61966 | -10.38631 | 31993 ft | 455 kts | 316° |
| 2026-05-06 15:07 | 54.66422 | -10.46279 | 31992 ft | 455 kts | 316° |
| 2026-05-06 15:07 | 54.70887 | -10.54004 | 31993 ft | 454 kts | 315° |
| 2026-05-06 15:08 | 54.75327 | -10.61758 | 31993 ft | 453 kts | 316° |
| 2026-05-06 15:08 | 54.79741 | -10.69525 | 31993 ft | 452 kts | 315° |
| 2026-05-06 15:09 | 54.84138 | -10.77319 | 31993 ft | 452 kts | 315° |
| 2026-05-06 15:09 | 54.88484 | -10.85071 | 31993 ft | 451 kts | 315° |
| 2026-05-06 15:10 | 54.92844 | -10.92888 | 31993 ft | 450 kts | 315° |
| 2026-05-06 15:10 | 54.97186 | -11.00710 | 31993 ft | 449 kts | 315° |
| 2026-05-06 15:11 | 55.01515 | -11.08538 | 31993 ft | 449 kts | 315° |
| 2026-05-06 15:11 | 55.05838 | -11.16387 | 31993 ft | 448 kts | 315° |
| 2026-05-06 15:12 | 55.10122 | -11.24195 | 31993 ft | 448 kts | 315° |
| 2026-05-06 15:12 | 55.14429 | -11.32076 | 31994 ft | 448 kts | 315° |
| 2026-05-06 15:13 | 55.18729 | -11.39968 | 31994 ft | 448 kts | 314° |
| 2026-05-06 15:13 | 55.23022 | -11.47875 | 31997 ft | 448 kts | 314° |
| 2026-05-06 15:14 | 55.27272 | -11.55734 | 32001 ft | 447 kts | 315° |
| 2026-05-06 15:14 | 55.31542 | -11.63656 | 32000 ft | 447 kts | 315° |
| 2026-05-06 15:15 | 55.35807 | -11.71593 | 31999 ft | 447 kts | 315° |
| 2026-05-06 15:15 | 55.40064 | -11.79540 | 32012 ft | 446 kts | 315° |
| 2026-05-06 15:16 | 55.44277 | -11.87433 | 32012 ft | 445 kts | 314° |
| 2026-05-06 15:16 | 55.48512 | -11.95394 | 32010 ft | 445 kts | 314° |
| 2026-05-06 15:17 | 55.52739 | -12.03367 | 32018 ft | 444 kts | 314° |
| 2026-05-06 15:17 | 55.56949 | -12.11336 | 32028 ft | 443 kts | 314° |
| 2026-05-06 15:18 | 55.61119 | -12.19255 | 32035 ft | 442 kts | 314° |
| 2026-05-06 15:18 | 55.65304 | -12.27228 | 32041 ft | 441 kts | 314° |
| 2026-05-06 15:19 | 55.69471 | -12.35197 | 32039 ft | 441 kts | 314° |
| 2026-05-06 15:19 | 55.73634 | -12.43190 | 32045 ft | 441 kts | 313° |
| 2026-05-06 15:20 | 55.77767 | -12.51207 | 32048 ft | 439 kts | 313° |
| 2026-05-06 15:20 | 55.81874 | -12.59230 | 32057 ft | 439 kts | 313° |
| 2026-05-06 15:21 | 55.85948 | -12.67196 | 32071 ft | 438 kts | 313° |
| 2026-05-06 15:21 | 55.90042 | -12.75217 | 32087 ft | 437 kts | 312° |
| 2026-05-06 15:22 | 55.94119 | -12.83285 | 32040 ft | 438 kts | 312° |
| 2026-05-06 15:22 | 55.98189 | -12.91360 | 32059 ft | 437 kts | 312° |
| 2026-05-06 15:23 | 56.02223 | -12.99364 | 32059 ft | 436 kts | 312° |
| 2026-05-06 15:23 | 56.06287 | -13.07420 | 32071 ft | 436 kts | 312° |
| 2026-05-06 15:24 | 56.10354 | -13.15499 | 32038 ft | 437 kts | 311° |
| 2026-05-06 15:24 | 56.13759 | -13.22273 | 32043 ft | 436 kts | 311° |
| 2026-05-06 15:25 | 56.17786 | -13.30312 | 32049 ft | 436 kts | 312° |
| 2026-05-06 15:25 | 56.21839 | -13.38418 | 32020 ft | 436 kts | 311° |
| 2026-05-06 15:26 | 56.25874 | -13.46512 | 32049 ft | 433 kts | 311° |
| 2026-05-06 15:26 | 56.29872 | -13.54553 | 32055 ft | 432 kts | 311° |
| 2026-05-06 15:27 | 56.33871 | -13.62621 | 32036 ft | 431 kts | 310° |
| 2026-05-06 15:27 | 56.37846 | -13.70664 | 32044 ft | 429 kts | 310° |
| 2026-05-06 15:28 | 56.41804 | -13.78707 | 32044 ft | 428 kts | 311° |
| 2026-05-06 15:28 | 56.45726 | -13.86690 | 32039 ft | 428 kts | 310° |
| 2026-05-06 15:29 | 56.49666 | -13.94740 | 32036 ft | 427 kts | 310° |
| 2026-05-06 15:29 | 56.53601 | -14.02810 | 32038 ft | 427 kts | 310° |
| 2026-05-06 15:30 | 56.57524 | -14.10884 | 32036 ft | 427 kts | 310° |
| 2026-05-06 15:30 | 56.61417 | -14.18922 | 32032 ft | 427 kts | 310° |
| 2026-05-06 15:31 | 56.65330 | -14.27030 | 32031 ft | 426 kts | 310° |
| 2026-05-06 15:31 | 56.69234 | -14.35146 | 32028 ft | 426 kts | 310° |
| 2026-05-06 15:32 | 56.75070 | -14.47328 | 32180 ft | 423 kts | 310° |
| 2026-05-06 15:32 | 56.78903 | -14.55362 | 32269 ft | 423 kts | 310° |
| 2026-05-06 15:33 | 56.82772 | -14.63497 | 32287 ft | 425 kts | 310° |
| 2026-05-06 15:33 | 56.86648 | -14.71678 | 32288 ft | 426 kts | 310° |
| 2026-05-06 15:34 | 56.90523 | -14.79880 | 32287 ft | 425 kts | 310° |
| 2026-05-06 15:34 | 56.94353 | -14.88010 | 32288 ft | 424 kts | 310° |
| 2026-05-06 15:35 | 56.98129 | -14.96292 | 32287 ft | 422 kts | 305° |
| 2026-05-06 15:35 | 57.01076 | -15.05585 | 32291 ft | 421 kts | 297° |
| 2026-05-06 15:36 | 57.03508 | -15.15345 | 32289 ft | 420 kts | 294° |
| 2026-05-06 15:36 | 57.05758 | -15.25252 | 32288 ft | 420 kts | 293° |
| 2026-05-06 15:37 | 57.07934 | -15.35131 | 32288 ft | 420 kts | 293° |
| 2026-05-06 15:37 | 57.10106 | -15.45088 | 32288 ft | 420 kts | 292° |
| 2026-05-06 15:38 | 57.12276 | -15.55057 | 32288 ft | 420 kts | 292° |
| 2026-05-06 15:38 | 57.14443 | -15.65031 | 32288 ft | 420 kts | 292° |
| 2026-05-06 15:39 | 57.16594 | -15.74951 | 32288 ft | 420 kts | 292° |
| 2026-05-06 15:39 | 57.18756 | -15.84944 | 32288 ft | 420 kts | 292° |
| 2026-05-06 15:40 | 57.20913 | -15.94949 | 32288 ft | 420 kts | 292° |
| 2026-05-06 15:40 | 57.23063 | -16.04961 | 32288 ft | 420 kts | 292° |
| 2026-05-06 15:41 | 57.25194 | -16.14922 | 32288 ft | 420 kts | 292° |
| 2026-05-06 15:41 | 57.27331 | -16.24961 | 32288 ft | 420 kts | 292° |
| 2026-05-06 15:42 | 57.29460 | -16.35005 | 32288 ft | 420 kts | 292° |
| 2026-05-06 15:42 | 57.31581 | -16.45062 | 32289 ft | 419 kts | 292° |
| 2026-05-06 15:43 | 57.33676 | -16.55042 | 32288 ft | 418 kts | 292° |
| 2026-05-06 15:43 | 57.35775 | -16.65084 | 32288 ft | 418 kts | 292° |
| 2026-05-06 15:44 | 57.37862 | -16.75125 | 32288 ft | 417 kts | 292° |
| 2026-05-06 15:44 | 57.39940 | -16.85172 | 32288 ft | 417 kts | 292° |
| 2026-05-06 15:45 | 57.42011 | -16.95229 | 32288 ft | 417 kts | 292° |
| 2026-05-06 15:45 | 57.44058 | -17.05225 | 32288 ft | 417 kts | 292° |
| 2026-05-06 15:46 | 57.46112 | -17.15305 | 32289 ft | 417 kts | 292° |
| 2026-05-06 15:46 | 57.48156 | -17.25383 | 32288 ft | 417 kts | 292° |
| 2026-05-06 15:47 | 57.50187 | -17.35446 | 32289 ft | 415 kts | 292° |
| 2026-05-06 15:47 | 57.52183 | -17.45396 | 32288 ft | 412 kts | 291° |
| 2026-05-06 15:48 | 57.54179 | -17.55387 | 32288 ft | 412 kts | 291° |
| 2026-05-06 15:48 | 57.56165 | -17.65371 | 32274 ft | 411 kts | 291° |
| 2026-05-06 15:49 | 57.58138 | -17.75350 | 32277 ft | 410 kts | 291° |
| 2026-05-06 15:49 | 57.60102 | -17.85342 | 32278 ft | 410 kts | 291° |
| 2026-05-06 15:50 | 57.62046 | -17.95262 | 32268 ft | 410 kts | 291° |
| 2026-05-06 15:50 | 57.63993 | -18.05257 | 32279 ft | 410 kts | 291° |
| 2026-05-06 15:51 | 57.65933 | -18.15268 | 32248 ft | 410 kts | 291° |
| 2026-05-06 15:51 | 57.67861 | -18.25262 | 32213 ft | 409 kts | 291° |
| 2026-05-06 15:52 | 57.69768 | -18.35196 | 32182 ft | 408 kts | 290° |
| 2026-05-06 15:52 | 57.71670 | -18.45179 | 32177 ft | 407 kts | 290° |
| 2026-05-06 15:53 | 57.73564 | -18.55159 | 32148 ft | 407 kts | 290° |
| 2026-05-06 15:53 | 57.75451 | -18.65153 | 32156 ft | 407 kts | 290° |
| 2026-05-06 15:54 | 57.77317 | -18.75092 | 32143 ft | 407 kts | 290° |
| 2026-05-06 15:54 | 57.79190 | -18.85113 | 32120 ft | 408 kts | 290° |
| 2026-05-06 15:55 | 57.81055 | -18.95150 | 32114 ft | 407 kts | 290° |
| 2026-05-06 15:55 | 57.82913 | -19.05191 | 32100 ft | 408 kts | 290° |
| 2026-05-06 15:56 | 57.84767 | -19.15263 | 32080 ft | 408 kts | 290° |
| 2026-05-06 15:56 | 57.86598 | -19.25267 | 32091 ft | 407 kts | 289° |
| 2026-05-06 15:57 | 57.88430 | -19.35331 | 32142 ft | 407 kts | 289° |
| 2026-05-06 15:57 | 57.90256 | -19.45415 | 32165 ft | 408 kts | 289° |
| 2026-05-06 15:58 | 57.92076 | -19.55515 | 32268 ft | 409 kts | 289° |
| 2026-05-06 15:58 | 57.93898 | -19.65687 | 32222 ft | 412 kts | 289° |
| 2026-05-06 15:59 | 57.95709 | -19.75826 | 32286 ft | 411 kts | 290° |
| 2026-05-06 15:59 | 57.97551 | -19.86015 | 32286 ft | 412 kts | 290° |
| 2026-05-06 16:00 | 57.99439 | -19.96192 | 32313 ft | 411 kts | 292° |
| 2026-05-06 16:00 | 58.01658 | -20.06055 | 32333 ft | 411 kts | 294° |
| 2026-05-06 16:01 | 58.04047 | -20.15858 | 32347 ft | 412 kts | 295° |
| 2026-05-06 16:01 | 58.06485 | -20.25649 | 32333 ft | 413 kts | 295° |
| 2026-05-06 16:02 | 58.08937 | -20.35469 | 32324 ft | 413 kts | 295° |
| 2026-05-06 16:02 | 58.11378 | -20.45274 | 32334 ft | 412 kts | 295° |
| 2026-05-06 16:03 | 58.13792 | -20.55028 | 32339 ft | 412 kts | 295° |
| 2026-05-06 16:03 | 58.16217 | -20.64877 | 32341 ft | 413 kts | 295° |
| 2026-05-06 16:04 | 58.18637 | -20.74756 | 32345 ft | 414 kts | 295° |
| 2026-05-06 16:04 | 58.21048 | -20.84654 | 32346 ft | 414 kts | 295° |
| 2026-05-06 16:05 | 58.23439 | -20.94518 | 32346 ft | 414 kts | 294° |
| 2026-05-06 16:05 | 58.25839 | -21.04465 | 32346 ft | 414 kts | 294° |
| 2026-05-06 16:06 | 58.28231 | -21.14423 | 32346 ft | 414 kts | 294° |
| 2026-05-06 16:06 | 58.30615 | -21.24400 | 32346 ft | 414 kts | 294° |
| 2026-05-06 16:07 | 58.32992 | -21.34391 | 32347 ft | 415 kts | 294° |
| 2026-05-06 16:07 | 58.35344 | -21.44325 | 32347 ft | 414 kts | 294° |
| 2026-05-06 16:08 | 58.37705 | -21.54340 | 32347 ft | 414 kts | 294° |
| 2026-05-06 16:08 | 58.40053 | -21.64352 | 32332 ft | 414 kts | 294° |
| 2026-05-06 16:09 | 58.42397 | -21.74391 | 32304 ft | 414 kts | 294° |
| 2026-05-06 16:09 | 58.44714 | -21.84357 | 32330 ft | 412 kts | 293° |
| 2026-05-06 16:10 | 58.47026 | -21.94364 | 32344 ft | 412 kts | 294° |
| 2026-05-06 16:10 | 58.49337 | -22.04410 | 32337 ft | 413 kts | 293° |
| 2026-05-06 16:11 | 58.51644 | -22.14476 | 32339 ft | 413 kts | 293° |
| 2026-05-06 16:11 | 58.53944 | -22.24565 | 32351 ft | 413 kts | 293° |
| 2026-05-06 16:12 | 58.56220 | -22.34588 | 32344 ft | 414 kts | 293° |
| 2026-05-06 16:12 | 58.58514 | -22.44742 | 32345 ft | 417 kts | 293° |
| 2026-05-06 16:13 | 58.60821 | -22.55006 | 32344 ft | 421 kts | 293° |
| 2026-05-06 16:13 | 58.63137 | -22.65350 | 32341 ft | 424 kts | 293° |
| 2026-05-06 16:14 | 58.65443 | -22.75705 | 32342 ft | 426 kts | 293° |
| 2026-05-06 16:14 | 58.67467 | -22.84832 | 32334 ft | 426 kts | 293° |
| 2026-05-06 16:15 | 58.69416 | -22.93661 | 32350 ft | 427 kts | 292° |
| 2026-05-06 16:15 | 58.70580 | -22.98948 | 32186 ft | 430 kts | 293° |
| 2026-05-06 16:15 | 58.71743 | -23.04247 | 32169 ft | 429 kts | 292° |
| 2026-05-06 16:16 | 58.74054 | -23.14831 | 32127 ft | 429 kts | 292° |
| 2026-05-06 16:16 | 58.76339 | -23.25332 | 32140 ft | 427 kts | 292° |
| 2026-05-06 16:17 | 58.78624 | -23.35895 | 32132 ft | 426 kts | 292° |
| 2026-05-06 16:17 | 58.80897 | -23.46459 | 32124 ft | 426 kts | 292° |
| 2026-05-06 16:18 | 58.83160 | -23.57022 | 32126 ft | 426 kts | 292° |
| 2026-05-06 16:18 | 58.85393 | -23.67513 | 32159 ft | 425 kts | 292° |
| 2026-05-06 16:19 | 58.87635 | -23.78083 | 32159 ft | 425 kts | 292° |
| 2026-05-06 16:19 | 58.89866 | -23.88670 | 32152 ft | 425 kts | 292° |
| 2026-05-06 16:20 | 58.92090 | -23.99277 | 32143 ft | 425 kts | 291° |
| 2026-05-06 16:20 | 58.94296 | -24.09871 | 32138 ft | 423 kts | 292° |
| 2026-05-06 16:21 | 58.96461 | -24.20307 | 32138 ft | 418 kts | 292° |
| 2026-05-06 16:21 | 58.98606 | -24.30697 | 32136 ft | 413 kts | 291° |
| 2026-05-06 16:22 | 59.00719 | -24.40992 | 32139 ft | 410 kts | 291° |
| 2026-05-06 16:22 | 59.02820 | -24.51278 | 32141 ft | 410 kts | 291° |
| 2026-05-06 16:23 | 59.04902 | -24.61521 | 32143 ft | 411 kts | 291° |
| 2026-05-06 16:23 | 59.06997 | -24.71877 | 32141 ft | 412 kts | 291° |
| 2026-05-06 16:24 | 59.09090 | -24.82272 | 32135 ft | 413 kts | 291° |
| 2026-05-06 16:24 | 59.11175 | -24.92684 | 32135 ft | 413 kts | 291° |
| 2026-05-06 16:25 | 59.13251 | -25.03107 | 32141 ft | 413 kts | 291° |
| 2026-05-06 16:25 | 59.15308 | -25.13492 | 32126 ft | 414 kts | 291° |
| 2026-05-06 16:26 | 59.17371 | -25.23961 | 32127 ft | 414 kts | 291° |
| 2026-05-06 16:26 | 59.19425 | -25.34440 | 32122 ft | 414 kts | 291° |
| 2026-05-06 16:27 | 59.21477 | -25.44959 | 32106 ft | 415 kts | 291° |
| 2026-05-06 16:27 | 59.23505 | -25.55418 | 32103 ft | 415 kts | 291° |
| 2026-05-06 16:28 | 59.25541 | -25.65973 | 32065 ft | 415 kts | 291° |
| 2026-05-06 16:28 | 59.27570 | -25.76543 | 32063 ft | 415 kts | 290° |
| 2026-05-06 16:29 | 59.29594 | -25.87148 | 32045 ft | 416 kts | 290° |
| 2026-05-06 16:29 | 59.31610 | -25.97767 | 32041 ft | 417 kts | 290° |
| 2026-05-06 16:30 | 59.33283 | -26.06623 | 32036 ft | 417 kts | 290° |
| 2026-05-06 16:30 | 59.35613 | -26.19026 | 32046 ft | 417 kts | 290° |
| 2026-05-06 16:31 | 59.37612 | -26.29729 | 32035 ft | 418 kts | 290° |
| 2026-05-06 16:31 | 59.39600 | -26.40439 | 32031 ft | 418 kts | 290° |
| 2026-05-06 16:32 | 59.41567 | -26.51088 | 32025 ft | 418 kts | 290° |
| 2026-05-06 16:32 | 59.43533 | -26.61800 | 32023 ft | 416 kts | 290° |
| 2026-05-06 16:33 | 59.45485 | -26.72494 | 32023 ft | 415 kts | 290° |
| 2026-05-06 16:34 | 59.48391 | -26.88530 | 32023 ft | 415 kts | 290° |
| 2026-05-06 16:34 | 59.50306 | -26.99167 | 32023 ft | 415 kts | 290° |
| 2026-05-06 16:35 | 59.52224 | -27.09885 | 32022 ft | 415 kts | 289° |
| 2026-05-06 16:35 | 59.54136 | -27.20625 | 32023 ft | 416 kts | 289° |
| 2026-05-06 16:36 | 59.56038 | -27.31378 | 32022 ft | 415 kts | 289° |
| 2026-05-06 16:36 | 59.57934 | -27.42156 | 32022 ft | 416 kts | 289° |
| 2026-05-06 16:37 | 59.59808 | -27.52875 | 32025 ft | 416 kts | 289° |
| 2026-05-06 16:37 | 59.61687 | -27.63677 | 32023 ft | 416 kts | 289° |
| 2026-05-06 16:38 | 59.63555 | -27.74485 | 32042 ft | 415 kts | 289° |
| 2026-05-06 16:38 | 59.65414 | -27.85305 | 32051 ft | 416 kts | 289° |
| 2026-05-06 16:39 | 59.67251 | -27.96054 | 32105 ft | 415 kts | 289° |
| 2026-05-06 16:39 | 59.68550 | -28.03701 | 32111 ft | 416 kts | 289° |
| 2026-05-06 16:40 | 59.70390 | -28.14577 | 32110 ft | 417 kts | 289° |
| 2026-05-06 16:40 | 59.72231 | -28.25527 | 32018 ft | 419 kts | 289° |
| 2026-05-06 16:41 | 59.74059 | -28.36468 | 32021 ft | 418 kts | 289° |
| 2026-05-06 16:41 | 59.75866 | -28.47345 | 32022 ft | 418 kts | 289° |
| 2026-05-06 16:42 | 59.77677 | -28.58324 | 32023 ft | 419 kts | 289° |
| 2026-05-06 16:42 | 59.79483 | -28.69339 | 32022 ft | 420 kts | 289° |
| 2026-05-06 16:43 | 59.81287 | -28.80403 | 32023 ft | 422 kts | 288° |
| 2026-05-06 16:43 | 59.83073 | -28.91429 | 32022 ft | 422 kts | 289° |
| 2026-05-06 16:44 | 59.84864 | -29.02556 | 32022 ft | 423 kts | 288° |
| 2026-05-06 16:44 | 59.86646 | -29.13703 | 32022 ft | 423 kts | 288° |
| 2026-05-06 16:45 | 59.88418 | -29.24859 | 32022 ft | 423 kts | 288° |
| 2026-05-06 16:45 | 59.90170 | -29.35965 | 32022 ft | 423 kts | 288° |
| 2026-05-06 16:46 | 59.91926 | -29.47162 | 32022 ft | 424 kts | 288° |
| 2026-05-06 16:46 | 59.93674 | -29.58397 | 32022 ft | 425 kts | 288° |
| 2026-05-06 16:47 | 59.95415 | -29.69675 | 32022 ft | 426 kts | 288° |
| 2026-05-06 16:47 | 59.97150 | -29.80999 | 32022 ft | 428 kts | 288° |
| 2026-05-06 16:48 | 59.98864 | -29.92299 | 32056 ft | 427 kts | 287° |
| 2026-05-06 16:48 | 59.99703 | -29.97943 | 32462 ft | 419 kts | 287° |
| 2026-05-06 16:48 | 60.00512 | -30.03486 | 32898 ft | 413 kts | 287° |
| 2026-05-06 16:48 | 60.01300 | -30.08961 | 33341 ft | 408 kts | 287° |
| 2026-05-06 16:49 | 60.02074 | -30.14390 | 33784 ft | 405 kts | 287° |
| 2026-05-06 16:49 | 60.02845 | -30.19832 | 33947 ft | 409 kts | 287° |
| 2026-05-06 16:49 | 60.03622 | -30.25342 | 34016 ft | 414 kts | 287° |
| 2026-05-06 16:50 | 60.05185 | -30.36519 | 34046 ft | 424 kts | 287° |
| 2026-05-06 16:50 | 60.06772 | -30.47971 | 34130 ft | 430 kts | 287° |
| 2026-05-06 16:50 | 60.07564 | -30.53733 | 34265 ft | 430 kts | 287° |
| 2026-05-06 16:51 | 60.08358 | -30.59524 | 34308 ft | 432 kts | 287° |
| 2026-05-06 16:51 | 60.09949 | -30.71204 | 34328 ft | 436 kts | 287° |
| 2026-05-06 16:51 | 60.10744 | -30.77073 | 34443 ft | 436 kts | 287° |
| 2026-05-06 16:52 | 60.11535 | -30.82944 | 34469 ft | 438 kts | 287° |
| 2026-05-06 16:52 | 60.13111 | -30.94691 | 34492 ft | 440 kts | 287° |
| 2026-05-06 16:53 | 60.14691 | -31.06572 | 34507 ft | 441 kts | 286° |
| 2026-05-06 16:53 | 60.16259 | -31.18458 | 34512 ft | 440 kts | 287° |
| 2026-05-06 16:54 | 60.17810 | -31.30326 | 34521 ft | 438 kts | 286° |
| 2026-05-06 16:54 | 60.19346 | -31.42164 | 34528 ft | 437 kts | 287° |
| 2026-05-06 16:55 | 60.20856 | -31.53904 | 34549 ft | 437 kts | 286° |
| 2026-05-06 16:55 | 60.22372 | -31.65767 | 34546 ft | 438 kts | 286° |
| 2026-05-06 16:56 | 60.23881 | -31.77674 | 34553 ft | 440 kts | 286° |
| 2026-05-06 16:56 | 60.25384 | -31.89627 | 34554 ft | 441 kts | 286° |
| 2026-05-06 16:57 | 60.26869 | -32.01532 | 34554 ft | 441 kts | 286° |
| 2026-05-06 16:57 | 60.28353 | -32.13526 | 34554 ft | 441 kts | 286° |
| 2026-05-06 16:58 | 60.29827 | -32.25542 | 34554 ft | 442 kts | 286° |
| 2026-05-06 16:58 | 60.31290 | -32.37573 | 34554 ft | 442 kts | 286° |
| 2026-05-06 16:59 | 60.32733 | -32.49540 | 34554 ft | 442 kts | 285° |
| 2026-05-06 16:59 | 60.34178 | -32.61612 | 34554 ft | 443 kts | 286° |
| 2026-05-06 17:00 | 60.35614 | -32.73721 | 34554 ft | 444 kts | 285° |
| 2026-05-06 17:00 | 60.37043 | -32.85867 | 34554 ft | 445 kts | 285° |
| 2026-05-06 17:01 | 60.38454 | -32.97961 | 34554 ft | 445 kts | 285° |
| 2026-05-06 17:01 | 60.39864 | -33.10160 | 34554 ft | 446 kts | 285° |
| 2026-05-06 17:02 | 60.41267 | -33.22396 | 34554 ft | 447 kts | 285° |
| 2026-05-06 17:02 | 60.42659 | -33.34651 | 34554 ft | 447 kts | 285° |
| 2026-05-06 17:03 | 60.44042 | -33.46938 | 34554 ft | 448 kts | 285° |
| 2026-05-06 17:03 | 60.45406 | -33.59174 | 34554 ft | 449 kts | 285° |
| 2026-05-06 17:04 | 60.46771 | -33.71530 | 34552 ft | 450 kts | 285° |
| 2026-05-06 17:04 | 60.48127 | -33.83922 | 34546 ft | 450 kts | 285° |
| 2026-05-06 17:05 | 60.49472 | -33.96315 | 34543 ft | 450 kts | 285° |
| 2026-05-06 17:05 | 60.50796 | -34.08634 | 34523 ft | 450 kts | 285° |
| 2026-05-06 17:06 | 60.52118 | -34.21054 | 34516 ft | 451 kts | 285° |
| 2026-05-06 17:06 | 60.53431 | -34.33506 | 34500 ft | 451 kts | 285° |
| 2026-05-06 17:07 | 60.54734 | -34.45975 | 34489 ft | 452 kts | 285° |
| 2026-05-06 17:07 | 60.56028 | -34.58494 | 34464 ft | 453 kts | 285° |
| 2026-05-06 17:08 | 60.57304 | -34.70948 | 34465 ft | 453 kts | 285° |
| 2026-05-06 17:08 | 60.58579 | -34.83520 | 34450 ft | 454 kts | 284° |
| 2026-05-06 17:09 | 60.59844 | -34.96118 | 34440 ft | 455 kts | 284° |
| 2026-05-06 17:09 | 60.61098 | -35.08749 | 34420 ft | 456 kts | 284° |
| 2026-05-06 17:10 | 60.62336 | -35.21333 | 34414 ft | 457 kts | 284° |
| 2026-05-06 17:10 | 60.63572 | -35.34031 | 34408 ft | 458 kts | 284° |
| 2026-05-06 17:11 | 60.64797 | -35.46772 | 34402 ft | 459 kts | 285° |
| 2026-05-06 17:11 | 60.66015 | -35.59552 | 34395 ft | 460 kts | 284° |
| 2026-05-06 17:12 | 60.67222 | -35.72366 | 34394 ft | 460 kts | 284° |
| 2026-05-06 17:12 | 60.68419 | -35.85196 | 34394 ft | 460 kts | 284° |
| 2026-05-06 17:13 | 60.69595 | -35.97950 | 34388 ft | 460 kts | 284° |
| 2026-05-06 17:13 | 60.70766 | -36.10798 | 34385 ft | 460 kts | 284° |
| 2026-05-06 17:14 | 60.71924 | -36.23646 | 34371 ft | 460 kts | 284° |
| 2026-05-06 17:14 | 60.73062 | -36.36423 | 34371 ft | 460 kts | 284° |
| 2026-05-06 17:15 | 60.74196 | -36.49302 | 34363 ft | 461 kts | 283° |
| 2026-05-06 17:15 | 60.75319 | -36.62197 | 34360 ft | 461 kts | 283° |
| 2026-05-06 17:16 | 60.76432 | -36.75132 | 34335 ft | 463 kts | 283° |
| 2026-05-06 17:16 | 60.77537 | -36.88134 | 34319 ft | 466 kts | 283° |
| 2026-05-06 17:17 | 60.78630 | -37.01130 | 34315 ft | 467 kts | 283° |
| 2026-05-06 17:17 | 60.79723 | -37.14289 | 34307 ft | 470 kts | 283° |
| 2026-05-06 17:18 | 60.80808 | -37.27511 | 34308 ft | 472 kts | 283° |
| 2026-05-06 17:18 | 60.81884 | -37.40806 | 34305 ft | 474 kts | 283° |
| 2026-05-06 17:19 | 60.82950 | -37.54162 | 34287 ft | 476 kts | 283° |
| 2026-05-06 17:19 | 60.84002 | -37.67504 | 34288 ft | 478 kts | 283° |
| 2026-05-06 17:20 | 60.85052 | -37.80991 | 34290 ft | 480 kts | 283° |
| 2026-05-06 17:20 | 60.86088 | -37.94501 | 34296 ft | 479 kts | 282° |
| 2026-05-06 17:21 | 60.87102 | -38.07921 | 34297 ft | 478 kts | 282° |
| 2026-05-06 17:21 | 60.88103 | -38.21375 | 34290 ft | 476 kts | 282° |
| 2026-05-06 17:22 | 60.89087 | -38.34795 | 34288 ft | 475 kts | 282° |
| 2026-05-06 17:22 | 60.90055 | -38.48189 | 34297 ft | 475 kts | 282° |
| 2026-05-06 17:23 | 60.91020 | -38.61681 | 34309 ft | 478 kts | 282° |
| 2026-05-06 17:23 | 60.91969 | -38.75163 | 34289 ft | 482 kts | 282° |
| 2026-05-06 17:24 | 60.92918 | -38.88829 | 34290 ft | 484 kts | 282° |
| 2026-05-06 17:24 | 60.93853 | -39.02539 | 34289 ft | 484 kts | 281° |
| 2026-05-06 17:25 | 60.94772 | -39.16246 | 34290 ft | 483 kts | 281° |
| 2026-05-06 17:25 | 60.95673 | -39.29934 | 34289 ft | 482 kts | 281° |
| 2026-05-06 17:26 | 60.96549 | -39.43484 | 34288 ft | 480 kts | 281° |
| 2026-05-06 17:26 | 60.97413 | -39.57083 | 34288 ft | 479 kts | 281° |
| 2026-05-06 17:27 | 60.98264 | -39.70700 | 34287 ft | 481 kts | 280° |
| 2026-05-06 17:27 | 60.99103 | -39.84416 | 34289 ft | 484 kts | 280° |
| 2026-05-06 17:28 | 60.99887 | -39.98145 | 34290 ft | 488 kts | 279° |
| 2026-05-06 17:28 | 61.00522 | -40.12107 | 34288 ft | 490 kts | 278° |
| 2026-05-06 17:29 | 61.01067 | -40.26101 | 34283 ft | 489 kts | 277° |
| 2026-05-06 17:29 | 61.01566 | -40.40071 | 34290 ft | 489 kts | 277° |
| 2026-05-06 17:30 | 61.02037 | -40.53991 | 34287 ft | 490 kts | 277° |
| 2026-05-06 17:30 | 61.02496 | -40.68065 | 34288 ft | 494 kts | 276° |
| 2026-05-06 17:31 | 61.02942 | -40.82243 | 34290 ft | 497 kts | 276° |
| 2026-05-06 17:31 | 61.03374 | -40.96509 | 34289 ft | 499 kts | 276° |
| 2026-05-06 17:32 | 61.03789 | -41.10696 | 34289 ft | 499 kts | 276° |
| 2026-05-06 17:32 | 61.04190 | -41.24959 | 34288 ft | 498 kts | 276° |
| 2026-05-06 17:33 | 61.04578 | -41.39221 | 34288 ft | 498 kts | 276° |
| 2026-05-06 17:33 | 61.04951 | -41.53506 | 34286 ft | 499 kts | 275° |
| 2026-05-06 17:34 | 61.05297 | -41.67862 | 34288 ft | 502 kts | 274° |
| 2026-05-06 17:34 | 61.05621 | -41.82199 | 34289 ft | 504 kts | 274° |
| 2026-05-06 17:35 | 61.05933 | -41.96696 | 34289 ft | 506 kts | 274° |
| 2026-05-06 17:35 | 61.06233 | -42.11190 | 34288 ft | 505 kts | 274° |
| 2026-05-06 17:36 | 61.06663 | -42.32939 | 34288 ft | 505 kts | 274° |
| 2026-05-06 17:36 | 61.06934 | -42.47349 | 34287 ft | 506 kts | 273° |
| 2026-05-06 17:37 | 61.07195 | -42.61913 | 34288 ft | 508 kts | 273° |
| 2026-05-06 17:37 | 61.07440 | -42.76531 | 34289 ft | 510 kts | 273° |
| 2026-05-06 17:38 | 61.07671 | -42.91182 | 34289 ft | 511 kts | 273° |
| 2026-05-06 17:38 | 61.07885 | -43.05751 | 34288 ft | 511 kts | 273° |
| 2026-05-06 17:39 | 61.08085 | -43.20416 | 34288 ft | 511 kts | 273° |
| 2026-05-06 17:39 | 61.08270 | -43.35088 | 34288 ft | 510 kts | 273° |
| 2026-05-06 17:40 | 61.08441 | -43.49747 | 34289 ft | 511 kts | 273° |
| 2026-05-06 17:40 | 61.08596 | -43.64418 | 34287 ft | 511 kts | 272° |
| 2026-05-06 17:41 | 61.08736 | -43.79034 | 34288 ft | 513 kts | 272° |
| 2026-05-06 17:41 | 61.08861 | -43.93799 | 34288 ft | 515 kts | 271° |
| 2026-05-06 17:42 | 61.08969 | -44.08610 | 34289 ft | 516 kts | 272° |
| 2026-05-06 17:42 | 61.09060 | -44.23435 | 34288 ft | 516 kts | 271° |
| 2026-05-06 17:43 | 61.09134 | -44.38173 | 34288 ft | 516 kts | 271° |
| 2026-05-06 17:43 | 61.09192 | -44.53012 | 34288 ft | 516 kts | 271° |
| 2026-05-06 17:44 | 61.09234 | -44.67844 | 34288 ft | 516 kts | 271° |
| 2026-05-06 17:44 | 61.09261 | -44.82668 | 34288 ft | 516 kts | 272° |
| 2026-05-06 17:45 | 61.09263 | -44.97507 | 34288 ft | 517 kts | 269° |
| 2026-05-06 17:45 | 61.09202 | -45.12281 | 34288 ft | 518 kts | 269° |
| 2026-05-06 17:46 | 61.09115 | -45.27179 | 34288 ft | 519 kts | 268° |
| 2026-05-06 17:46 | 61.09020 | -45.42107 | 34288 ft | 520 kts | 268° |
| 2026-05-06 17:47 | 61.08918 | -45.57050 | 34288 ft | 520 kts | 268° |
| 2026-05-06 17:47 | 61.08845 | -45.71899 | 34279 ft | 521 kts | 270° |
| 2026-05-06 17:48 | 61.08816 | -45.86875 | 34273 ft | 521 kts | 270° |
| 2026-05-06 17:48 | 61.08782 | -46.01866 | 34270 ft | 522 kts | 270° |
| 2026-05-06 17:49 | 61.08730 | -46.14314 | 34271 ft | 517 kts | 274° |
| 2026-05-06 17:49 | 61.08680 | -46.29101 | 34206 ft | 516 kts | 269° |
| 2026-05-06 17:50 | 61.08522 | -46.46201 | 34220 ft | 509 kts | 270° |
| 2026-05-06 17:50 | 61.08351 | -46.60680 | 34203 ft | 492 kts | 269° |
| 2026-05-06 17:51 | 61.08260 | -46.67680 | 34073 ft | 483 kts | 272° |
| 2026-05-06 17:51 | 61.08201 | -46.72225 | 34162 ft | 474 kts | 272° |
| 2026-05-06 17:51 | 61.08114 | -46.78953 | 34273 ft | 464 kts | 270° |
| 2026-05-06 17:51 | 61.08018 | -46.85552 | 34272 ft | 457 kts | 270° |
| 2026-05-06 17:52 | 61.07796 | -47.00619 | 34250 ft | 449 kts | 273° |
| 2026-05-06 17:52 | 61.07613 | -47.11524 | 34262 ft | 458 kts | 268° |
| 2026-05-06 17:53 | 61.07421 | -47.24818 | 34289 ft | 471 kts | 264° |
| 2026-05-06 17:53 | 61.07177 | -47.38335 | 34219 ft | 475 kts | 265° |
| 2026-05-06 17:54 | 61.06909 | -47.52154 | 34246 ft | 483 kts | 263° |
| 2026-05-06 17:54 | 61.06611 | -47.66085 | 34184 ft | 492 kts | 266° |
| 2026-05-06 17:55 | 61.06303 | -47.80308 | 34219 ft | 505 kts | 263° |
| 2026-05-06 17:55 | 61.05955 | -47.94984 | 34199 ft | 518 kts | 265° |
| 2026-05-06 17:56 | 61.05612 | -48.09935 | 34191 ft | 524 kts | 265° |
| 2026-05-06 17:56 | 61.05265 | -48.24996 | 34181 ft | 525 kts | 265° |
| 2026-05-06 17:57 | 61.04903 | -48.40042 | 34173 ft | 525 kts | 265° |
| 2026-05-06 17:57 | 61.04519 | -48.54889 | 34195 ft | 520 kts | 264° |
| 2026-05-06 17:58 | 61.04145 | -48.69757 | 34248 ft | 513 kts | 262° |
| 2026-05-06 17:58 | 61.03775 | -48.84331 | 34246 ft | 508 kts | 262° |
| 2026-05-06 17:59 | 61.03578 | -48.91553 | 34337 ft | 497 kts | 262° |
| 2026-05-06 17:59 | 61.03384 | -48.98596 | 34300 ft | 487 kts | 262° |
| 2026-05-06 17:59 | 61.02966 | -49.12372 | 34255 ft | 481 kts | 261° |
| 2026-05-06 18:00 | 61.02548 | -49.26108 | 34231 ft | 484 kts | 263° |
| 2026-05-06 18:00 | 61.02064 | -49.40158 | 34275 ft | 499 kts | 263° |
| 2026-05-06 18:01 | 61.01537 | -49.54666 | 34287 ft | 516 kts | 262° |
| 2026-05-06 18:01 | 61.00993 | -49.69619 | 34291 ft | 529 kts | 262° |
| 2026-05-06 18:02 | 61.00453 | -49.84762 | 34290 ft | 536 kts | 262° |
| 2026-05-06 18:02 | 60.99915 | -50.00138 | 34289 ft | 538 kts | 262° |
| 2026-05-06 18:03 | 60.99331 | -50.15514 | 34288 ft | 538 kts | 262° |
| 2026-05-06 18:03 | 60.98722 | -50.30874 | 34288 ft | 538 kts | 262° |
| 2026-05-06 18:04 | 60.98102 | -50.46103 | 34288 ft | 537 kts | 261° |
| 2026-05-06 18:04 | 60.97466 | -50.61429 | 34288 ft | 537 kts | 261° |
| 2026-05-06 18:05 | 60.96817 | -50.76759 | 34288 ft | 538 kts | 261° |
| 2026-05-06 18:05 | 60.96151 | -50.92097 | 34288 ft | 538 kts | 261° |
| 2026-05-06 18:06 | 60.95471 | -51.07445 | 34288 ft | 539 kts | 260° |
| 2026-05-06 18:06 | 60.94779 | -51.22706 | 34288 ft | 540 kts | 260° |
| 2026-05-06 18:07 | 60.94066 | -51.38074 | 34288 ft | 540 kts | 260° |
| 2026-05-06 18:07 | 60.93337 | -51.53466 | 34288 ft | 541 kts | 260° |
| 2026-05-06 18:08 | 60.92647 | -51.67719 | 34288 ft | 542 kts | 260° |
| 2026-05-06 18:08 | 60.91885 | -51.83130 | 34288 ft | 543 kts | 260° |
| 2026-05-06 18:09 | 60.91110 | -51.98460 | 34288 ft | 543 kts | 260° |
| 2026-05-06 18:09 | 60.90311 | -52.13901 | 34288 ft | 544 kts | 259° |
| 2026-05-06 18:10 | 60.89496 | -52.29339 | 34288 ft | 544 kts | 259° |
| 2026-05-06 18:10 | 60.88665 | -52.44757 | 34287 ft | 543 kts | 259° |
| 2026-05-06 18:11 | 60.87825 | -52.60041 | 34286 ft | 542 kts | 258° |
| 2026-05-06 18:11 | 60.86963 | -52.75381 | 34284 ft | 540 kts | 258° |
| 2026-05-06 18:12 | 60.86084 | -52.90688 | 34285 ft | 540 kts | 258° |
| 2026-05-06 18:12 | 60.85188 | -53.05958 | 34283 ft | 539 kts | 258° |
| 2026-05-06 18:13 | 60.84279 | -53.21129 | 34280 ft | 540 kts | 257° |
| 2026-05-06 18:13 | 60.83348 | -53.36398 | 34270 ft | 540 kts | 257° |
| 2026-05-06 18:14 | 60.82401 | -53.51652 | 34257 ft | 539 kts | 257° |
| 2026-05-06 18:14 | 60.81437 | -53.66882 | 34254 ft | 539 kts | 257° |
| 2026-05-06 18:15 | 60.80464 | -53.81981 | 34246 ft | 538 kts | 257° |
| 2026-05-06 18:15 | 60.79467 | -53.97174 | 34242 ft | 538 kts | 256° |
| 2026-05-06 18:16 | 60.78453 | -54.12347 | 34239 ft | 538 kts | 256° |
| 2026-05-06 18:16 | 60.77421 | -54.27519 | 34236 ft | 538 kts | 256° |
| 2026-05-06 18:17 | 60.76373 | -54.42681 | 34235 ft | 539 kts | 256° |
| 2026-05-06 18:17 | 60.75313 | -54.57755 | 34235 ft | 539 kts | 256° |
| 2026-05-06 18:18 | 60.74230 | -54.72921 | 34231 ft | 539 kts | 255° |
| 2026-05-06 18:18 | 60.73130 | -54.88069 | 34230 ft | 539 kts | 255° |
| 2026-05-06 18:19 | 60.72013 | -55.03210 | 34229 ft | 539 kts | 255° |
| 2026-05-06 18:19 | 60.70884 | -55.18260 | 34229 ft | 540 kts | 255° |
| 2026-05-06 18:20 | 60.69732 | -55.33395 | 34217 ft | 540 kts | 255° |
| 2026-05-06 18:20 | 60.68560 | -55.48543 | 34167 ft | 540 kts | 254° |
| 2026-05-06 18:21 | 60.67375 | -55.63666 | 34136 ft | 540 kts | 254° |
| 2026-05-06 18:21 | 60.66174 | -55.78754 | 34122 ft | 538 kts | 253° |
| 2026-05-06 18:22 | 60.64966 | -55.93715 | 34103 ft | 538 kts | 253° |
| 2026-05-06 18:22 | 60.63746 | -56.08734 | 34105 ft | 537 kts | 255° |
| 2026-05-06 18:23 | 60.62558 | -56.23717 | 34093 ft | 534 kts | 255° |
| 2026-05-06 18:23 | 60.61371 | -56.38627 | 34080 ft | 533 kts | 255° |
| 2026-05-06 18:24 | 60.60169 | -56.53373 | 34083 ft | 531 kts | 255° |
| 2026-05-06 18:24 | 60.58930 | -56.68160 | 34092 ft | 530 kts | 255° |
| 2026-05-06 18:25 | 60.57660 | -56.82935 | 34072 ft | 530 kts | 254° |
| 2026-05-06 18:25 | 60.56363 | -56.97660 | 34061 ft | 529 kts | 254° |
| 2026-05-06 18:26 | 60.55051 | -57.12245 | 34067 ft | 528 kts | 254° |
| 2026-05-06 18:26 | 60.53714 | -57.26866 | 34111 ft | 526 kts | 254° |
| 2026-05-06 18:27 | 60.52356 | -57.41485 | 34091 ft | 526 kts | 254° |
| 2026-05-06 18:27 | 60.50982 | -57.56066 | 34089 ft | 526 kts | 254° |
| 2026-05-06 18:28 | 60.49587 | -57.70629 | 34056 ft | 526 kts | 254° |
| 2026-05-06 18:28 | 60.48179 | -57.85063 | 34081 ft | 524 kts | 254° |
| 2026-05-06 18:29 | 60.46629 | -57.99474 | 34106 ft | 521 kts | 251° |
| 2026-05-06 18:29 | 60.44662 | -58.13530 | 34124 ft | 516 kts | 249° |
| 2026-05-06 18:30 | 60.42488 | -58.27375 | 34075 ft | 515 kts | 248° |
| 2026-05-06 18:30 | 60.40238 | -58.41023 | 34039 ft | 514 kts | 247° |
| 2026-05-06 18:31 | 60.37935 | -58.54699 | 34028 ft | 513 kts | 247° |
| 2026-05-06 18:31 | 60.35621 | -58.68299 | 33996 ft | 512 kts | 247° |
| 2026-05-06 18:32 | 60.33296 | -58.81891 | 33987 ft | 511 kts | 247° |
| 2026-05-06 18:32 | 60.30979 | -58.95373 | 33982 ft | 512 kts | 247° |
| 2026-05-06 18:33 | 60.28635 | -59.08942 | 33971 ft | 512 kts | 248° |
| 2026-05-06 18:33 | 60.26289 | -59.22457 | 33962 ft | 511 kts | 247° |
| 2026-05-06 18:34 | 60.23934 | -59.35934 | 33946 ft | 510 kts | 247° |
| 2026-05-06 18:34 | 60.21586 | -59.49292 | 33949 ft | 509 kts | 247° |
| 2026-05-06 18:35 | 60.19211 | -59.62711 | 33947 ft | 510 kts | 247° |
| 2026-05-06 18:35 | 60.16818 | -59.76137 | 33962 ft | 510 kts | 246° |
| 2026-05-06 18:36 | 60.14415 | -59.89536 | 33938 ft | 511 kts | 246° |
| 2026-05-06 18:36 | 60.11992 | -60.02945 | 33934 ft | 511 kts | 246° |
| 2026-05-06 18:37 | 60.09575 | -60.16224 | 33954 ft | 510 kts | 246° |
| 2026-05-06 18:37 | 60.07134 | -60.29546 | 33916 ft | 510 kts | 246° |
| 2026-05-06 18:38 | 60.04677 | -60.42870 | 33919 ft | 509 kts | 246° |
| 2026-05-06 18:38 | 60.02213 | -60.56135 | 33912 ft | 509 kts | 246° |
| 2026-05-06 18:39 | 59.99736 | -60.69390 | 33940 ft | 509 kts | 245° |
| 2026-05-06 18:40 | 59.96005 | -60.89190 | 33919 ft | 511 kts | 245° |
| 2026-05-06 18:40 | 59.93485 | -61.02440 | 33922 ft | 511 kts | 245° |
| 2026-05-06 18:41 | 59.90955 | -61.15667 | 33935 ft | 511 kts | 245° |
| 2026-05-06 18:41 | 59.88400 | -61.28929 | 33926 ft | 513 kts | 245° |
| 2026-05-06 18:42 | 59.85832 | -61.42175 | 33932 ft | 513 kts | 245° |
| 2026-05-06 18:42 | 59.83265 | -61.55328 | 33937 ft | 514 kts | 244° |
| 2026-05-06 18:43 | 59.80665 | -61.68565 | 33937 ft | 514 kts | 244° |
| 2026-05-06 18:43 | 59.78049 | -61.81793 | 33941 ft | 514 kts | 244° |
| 2026-05-06 18:44 | 59.75423 | -61.94985 | 33945 ft | 514 kts | 244° |
| 2026-05-06 18:44 | 59.72804 | -62.08055 | 33954 ft | 513 kts | 244° |
| 2026-05-06 18:45 | 59.70158 | -62.21169 | 33956 ft | 513 kts | 244° |
| 2026-05-06 18:45 | 59.67494 | -62.34282 | 33976 ft | 513 kts | 244° |
| 2026-05-06 18:46 | 59.64821 | -62.47353 | 33973 ft | 513 kts | 244° |
| 2026-05-06 18:46 | 59.62138 | -62.60394 | 33978 ft | 512 kts | 244° |
| 2026-05-06 18:47 | 59.59452 | -62.73353 | 33970 ft | 514 kts | 244° |
| 2026-05-06 18:47 | 59.56738 | -62.86370 | 34024 ft | 513 kts | 244° |
| 2026-05-06 18:48 | 59.54012 | -62.99358 | 34046 ft | 512 kts | 243° |
| 2026-05-06 18:48 | 59.51289 | -63.12261 | 34035 ft | 507 kts | 243° |
| 2026-05-06 18:49 | 59.48576 | -63.25036 | 34047 ft | 506 kts | 243° |
| 2026-05-06 18:49 | 59.45877 | -63.37663 | 34050 ft | 502 kts | 243° |
| 2026-05-06 18:50 | 59.43165 | -63.50278 | 34072 ft | 501 kts | 243° |
| 2026-05-06 18:50 | 59.40452 | -63.62792 | 34069 ft | 495 kts | 244° |
| 2026-05-06 18:51 | 59.37735 | -63.75201 | 34184 ft | 495 kts | 243° |
| 2026-05-06 18:51 | 59.35037 | -63.87421 | 34163 ft | 489 kts | 245° |
| 2026-05-06 18:52 | 59.32377 | -63.99576 | 34190 ft | 482 kts | 245° |
| 2026-05-06 18:52 | 59.29746 | -64.11568 | 34166 ft | 477 kts | 246° |
| 2026-05-06 18:53 | 59.27155 | -64.23458 | 34164 ft | 474 kts | 246° |
| 2026-05-06 18:53 | 59.24769 | -64.35369 | 34123 ft | 473 kts | 248° |
| 2026-05-06 18:54 | 59.22441 | -64.47381 | 34163 ft | 475 kts | 246° |
| 2026-05-06 18:54 | 59.20067 | -64.59441 | 34142 ft | 476 kts | 246° |
| 2026-05-06 18:55 | 59.17673 | -64.71510 | 34080 ft | 480 kts | 244° |
| 2026-05-06 18:55 | 59.15203 | -64.83734 | 34019 ft | 486 kts | 246° |
| 2026-05-06 18:56 | 59.12776 | -64.95876 | 33921 ft | 483 kts | 246° |
| 2026-05-06 18:56 | 59.10354 | -65.08050 | 33844 ft | 480 kts | 248° |
| 2026-05-06 18:57 | 59.07951 | -65.20115 | 33737 ft | 480 kts | 245° |
| 2026-05-06 18:57 | 59.05510 | -65.32215 | 33762 ft | 478 kts | 248° |
| 2026-05-06 18:58 | 59.03090 | -65.44197 | 33695 ft | 480 kts | 245° |
| 2026-05-06 18:58 | 59.00633 | -65.56235 | 33661 ft | 485 kts | 245° |
| 2026-05-06 18:59 | 58.98111 | -65.68452 | 33583 ft | 493 kts | 245° |
| 2026-05-06 18:59 | 58.95530 | -65.80856 | 33561 ft | 499 kts | 245° |
| 2026-05-06 19:00 | 58.92912 | -65.93377 | 33512 ft | 503 kts | 244° |
| 2026-05-06 19:00 | 58.90298 | -66.05819 | 33598 ft | 502 kts | 244° |
| 2026-05-06 19:01 | 58.87662 | -66.18301 | 33648 ft | 500 kts | 245° |
| 2026-05-06 19:01 | 58.85026 | -66.30708 | 33814 ft | 500 kts | 245° |
| 2026-05-06 19:02 | 58.82370 | -66.43140 | 33722 ft | 501 kts | 244° |
| 2026-05-06 19:02 | 58.79716 | -66.55483 | 33740 ft | 502 kts | 244° |
| 2026-05-06 19:03 | 58.77045 | -66.67828 | 33622 ft | 495 kts | 245° |
| 2026-05-06 19:03 | 58.74374 | -66.80020 | 33623 ft | 492 kts | 244° |
| 2026-05-06 19:04 | 58.71712 | -66.92070 | 33574 ft | 486 kts | 245° |
| 2026-05-06 19:04 | 58.70418 | -66.98008 | 33939 ft | 477 kts | 244° |
| 2026-05-06 19:04 | 58.69148 | -67.03853 | 34373 ft | 471 kts | 244° |
| 2026-05-06 19:04 | 58.67908 | -67.09544 | 34813 ft | 465 kts | 244° |
| 2026-05-06 19:05 | 58.66662 | -67.15252 | 35257 ft | 461 kts | 244° |
| 2026-05-06 19:05 | 58.65419 | -67.20936 | 35521 ft | 464 kts | 244° |
| 2026-05-06 19:05 | 58.64158 | -67.26681 | 35590 ft | 470 kts | 244° |
| 2026-05-06 19:06 | 58.61602 | -67.38382 | 35559 ft | 480 kts | 245° |
| 2026-05-06 19:06 | 58.58944 | -67.50347 | 35525 ft | 494 kts | 244° |
| 2026-05-06 19:07 | 58.56198 | -67.62480 | 35522 ft | 504 kts | 244° |
| 2026-05-06 19:07 | 58.53378 | -67.74862 | 35521 ft | 510 kts | 244° |
| 2026-05-06 19:08 | 58.50526 | -67.87349 | 35521 ft | 513 kts | 244° |
| 2026-05-06 19:08 | 58.47663 | -67.99854 | 35519 ft | 514 kts | 244° |
| 2026-05-06 19:09 | 58.44808 | -68.12290 | 35519 ft | 515 kts | 244° |
| 2026-05-06 19:09 | 58.41928 | -68.24783 | 35518 ft | 514 kts | 244° |
| 2026-05-06 19:10 | 58.39039 | -68.37260 | 35520 ft | 514 kts | 244° |
| 2026-05-06 19:10 | 58.36142 | -68.49711 | 35514 ft | 514 kts | 244° |
| 2026-05-06 19:11 | 58.33290 | -68.61907 | 35519 ft | 513 kts | 244° |
| 2026-05-06 19:11 | 58.31129 | -68.71108 | 35518 ft | 512 kts | 243° |
| 2026-05-06 19:12 | 58.28223 | -68.83425 | 35518 ft | 509 kts | 243° |
| 2026-05-06 19:12 | 58.25330 | -68.95624 | 35562 ft | 504 kts | 243° |
| 2026-05-06 19:13 | 58.22454 | -69.07687 | 35584 ft | 501 kts | 243° |
| 2026-05-06 19:13 | 58.19568 | -69.19724 | 35675 ft | 499 kts | 243° |
| 2026-05-06 19:14 | 58.16701 | -69.31615 | 35586 ft | 502 kts | 243° |
| 2026-05-06 19:14 | 58.13787 | -69.43635 | 35685 ft | 500 kts | 243° |
| 2026-05-06 19:15 | 58.10878 | -69.55577 | 35700 ft | 501 kts | 243° |
| 2026-05-06 19:15 | 58.07957 | -69.67518 | 35867 ft | 498 kts | 243° |
| 2026-05-06 19:16 | 58.05061 | -69.79308 | 35921 ft | 499 kts | 243° |
| 2026-05-06 19:16 | 58.02130 | -69.91207 | 35948 ft | 500 kts | 243° |
| 2026-05-06 19:17 | 57.99504 | -70.03364 | 35946 ft | 503 kts | 248° |
| 2026-05-06 19:17 | 57.97308 | -70.15939 | 35952 ft | 506 kts | 251° |
| 2026-05-06 19:18 | 57.95294 | -70.28603 | 35933 ft | 511 kts | 252° |
| 2026-05-06 19:18 | 57.93311 | -70.41458 | 35866 ft | 511 kts | 252° |
| 2026-05-06 19:19 | 57.91352 | -70.54310 | 35717 ft | 513 kts | 252° |
| 2026-05-06 19:19 | 57.89401 | -70.67159 | 35610 ft | 508 kts | 252° |
| 2026-05-06 19:20 | 57.87442 | -70.79945 | 35587 ft | 509 kts | 252° |
| 2026-05-06 19:20 | 57.85466 | -70.92663 | 35538 ft | 512 kts | 252° |
| 2026-05-06 19:21 | 57.83444 | -71.05513 | 35513 ft | 515 kts | 252° |
| 2026-05-06 19:21 | 57.81392 | -71.18393 | 35533 ft | 516 kts | 251° |
| 2026-05-06 19:22 | 57.79318 | -71.31273 | 35531 ft | 516 kts | 251° |
| 2026-05-06 19:22 | 57.77239 | -71.44055 | 35538 ft | 516 kts | 251° |
| 2026-05-06 19:23 | 57.75131 | -71.56889 | 35518 ft | 516 kts | 251° |
| 2026-05-06 19:23 | 57.73004 | -71.69722 | 35497 ft | 516 kts | 251° |
| 2026-05-06 19:24 | 57.70863 | -71.82531 | 35491 ft | 516 kts | 251° |
| 2026-05-06 19:24 | 57.68722 | -71.95244 | 35491 ft | 516 kts | 251° |
| 2026-05-06 19:25 | 57.66551 | -72.08034 | 35491 ft | 517 kts | 251° |
| 2026-05-06 19:25 | 57.64365 | -72.20825 | 35491 ft | 516 kts | 251° |
| 2026-05-06 19:26 | 57.62170 | -72.33569 | 35492 ft | 515 kts | 250° |
| 2026-05-06 19:26 | 57.59982 | -72.46188 | 35491 ft | 514 kts | 250° |
| 2026-05-06 19:27 | 57.57771 | -72.58842 | 35488 ft | 513 kts | 250° |
| 2026-05-06 19:27 | 57.55546 | -72.71479 | 35495 ft | 513 kts | 250° |
| 2026-05-06 19:28 | 57.53307 | -72.84115 | 35500 ft | 514 kts | 250° |
| 2026-05-06 19:28 | 57.51056 | -72.96743 | 35485 ft | 515 kts | 250° |
| 2026-05-06 19:29 | 57.48803 | -73.09293 | 35479 ft | 515 kts | 250° |
| 2026-05-06 19:29 | 57.46528 | -73.21884 | 35493 ft | 514 kts | 250° |
| 2026-05-06 19:30 | 57.44240 | -73.34447 | 35471 ft | 512 kts | 250° |
| 2026-05-06 19:30 | 57.41945 | -73.46950 | 35453 ft | 512 kts | 250° |
| 2026-05-06 19:31 | 57.39639 | -73.59439 | 35468 ft | 511 kts | 250° |
| 2026-05-06 19:31 | 57.36179 | -73.78054 | 35449 ft | 511 kts | 250° |
| 2026-05-06 19:32 | 57.33846 | -73.90503 | 35444 ft | 512 kts | 250° |
| 2026-05-06 19:32 | 57.31501 | -74.02927 | 35441 ft | 512 kts | 250° |
| 2026-05-06 19:33 | 57.29159 | -74.15255 | 35437 ft | 511 kts | 249° |
| 2026-05-06 19:33 | 57.26794 | -74.27623 | 35438 ft | 510 kts | 249° |
| 2026-05-06 19:34 | 57.24421 | -74.39956 | 35436 ft | 509 kts | 249° |
| 2026-05-06 19:34 | 57.22040 | -74.52250 | 35437 ft | 508 kts | 249° |
| 2026-05-06 19:35 | 57.19646 | -74.64533 | 35426 ft | 509 kts | 249° |
| 2026-05-06 19:35 | 57.17252 | -74.76735 | 35429 ft | 510 kts | 249° |
| 2026-05-06 19:36 | 57.14833 | -74.88997 | 35446 ft | 509 kts | 249° |
| 2026-05-06 19:36 | 57.12407 | -75.01214 | 35453 ft | 508 kts | 249° |
| 2026-05-06 19:37 | 57.09975 | -75.13397 | 35480 ft | 507 kts | 248° |
| 2026-05-06 19:37 | 57.07946 | -75.23494 | 35537 ft | 506 kts | 248° |
| 2026-05-06 19:38 | 57.05087 | -75.37640 | 35512 ft | 509 kts | 248° |
| 2026-05-06 19:38 | 57.02615 | -75.49794 | 35522 ft | 507 kts | 248° |
| 2026-05-06 19:39 | 57.00135 | -75.61903 | 35469 ft | 505 kts | 248° |
| 2026-05-06 19:39 | 56.97663 | -75.73899 | 35464 ft | 500 kts | 248° |
| 2026-05-06 19:40 | 56.95220 | -75.85686 | 35461 ft | 495 kts | 248° |
| 2026-05-06 19:40 | 56.92767 | -75.97465 | 35511 ft | 495 kts | 248° |
| 2026-05-06 19:41 | 56.90296 | -76.09249 | 35489 ft | 497 kts | 248° |
| 2026-05-06 19:41 | 56.87804 | -76.21069 | 35524 ft | 498 kts | 247° |
| 2026-05-06 19:42 | 56.85312 | -76.32818 | 35562 ft | 499 kts | 247° |
| 2026-05-06 19:42 | 56.82799 | -76.44599 | 35594 ft | 498 kts | 247° |
| 2026-05-06 19:43 | 56.80275 | -76.56360 | 35630 ft | 496 kts | 247° |
| 2026-05-06 19:43 | 56.77755 | -76.68049 | 35579 ft | 496 kts | 247° |
| 2026-05-06 19:44 | 56.76496 | -76.73862 | 35680 ft | 491 kts | 246° |
| 2026-05-06 19:44 | 56.75243 | -76.79634 | 35779 ft | 487 kts | 246° |
| 2026-05-06 19:44 | 56.72771 | -76.90978 | 35753 ft | 486 kts | 246° |
| 2026-05-06 19:45 | 56.70254 | -77.02441 | 35701 ft | 487 kts | 246° |
| 2026-05-06 19:45 | 56.67734 | -77.13852 | 35668 ft | 488 kts | 246° |
| 2026-05-06 19:46 | 56.65172 | -77.25385 | 35614 ft | 494 kts | 246° |
| 2026-05-06 19:46 | 56.62580 | -77.36997 | 35616 ft | 498 kts | 246° |
| 2026-05-06 19:47 | 56.59976 | -77.48599 | 35590 ft | 501 kts | 246° |
| 2026-05-06 19:47 | 56.57340 | -77.60296 | 35660 ft | 501 kts | 246° |
| 2026-05-06 19:48 | 56.54683 | -77.72012 | 35626 ft | 503 kts | 246° |
| 2026-05-06 19:48 | 56.52031 | -77.83640 | 35602 ft | 504 kts | 246° |
| 2026-05-06 19:49 | 56.49340 | -77.95367 | 35518 ft | 505 kts | 246° |
| 2026-05-06 19:49 | 56.46640 | -78.07077 | 35530 ft | 503 kts | 246° |
| 2026-05-06 19:50 | 56.43933 | -78.18755 | 35522 ft | 504 kts | 246° |
| 2026-05-06 19:50 | 56.41217 | -78.30412 | 35529 ft | 504 kts | 246° |
| 2026-05-06 19:51 | 56.38504 | -78.41992 | 35522 ft | 504 kts | 246° |
| 2026-05-06 19:51 | 56.35758 | -78.53645 | 35520 ft | 505 kts | 246° |
| 2026-05-06 19:52 | 56.33001 | -78.65285 | 35526 ft | 505 kts | 246° |
| 2026-05-06 19:52 | 56.30234 | -78.76902 | 35549 ft | 504 kts | 246° |
| 2026-05-06 19:53 | 56.27456 | -78.88507 | 35546 ft | 504 kts | 246° |
| 2026-05-06 19:53 | 56.24690 | -78.99993 | 35613 ft | 504 kts | 246° |
| 2026-05-06 19:54 | 56.21900 | -79.11515 | 35737 ft | 503 kts | 246° |
| 2026-05-06 19:54 | 56.19102 | -79.23023 | 35834 ft | 504 kts | 246° |
| 2026-05-06 19:55 | 56.16277 | -79.34579 | 35782 ft | 506 kts | 246° |
| 2026-05-06 19:55 | 56.13437 | -79.46131 | 35817 ft | 506 kts | 246° |
| 2026-05-06 19:56 | 56.10605 | -79.57589 | 35791 ft | 506 kts | 245° |
| 2026-05-06 19:56 | 56.07753 | -79.69070 | 35839 ft | 504 kts | 245° |
| 2026-05-06 19:57 | 56.04896 | -79.80514 | 35875 ft | 503 kts | 245° |
| 2026-05-06 19:57 | 56.02028 | -79.91941 | 35888 ft | 504 kts | 245° |
| 2026-05-06 19:58 | 55.99346 | -80.03441 | 35899 ft | 505 kts | 248° |
| 2026-05-06 19:58 | 55.96885 | -80.15226 | 35896 ft | 508 kts | 250° |
| 2026-05-06 19:59 | 55.94503 | -80.27126 | 35899 ft | 510 kts | 250° |
| 2026-05-06 19:59 | 55.92147 | -80.39039 | 35910 ft | 509 kts | 250° |
| 2026-05-06 20:00 | 55.89810 | -80.50844 | 35902 ft | 508 kts | 250° |
| 2026-05-06 20:00 | 55.87453 | -80.62678 | 35905 ft | 506 kts | 250° |
| 2026-05-06 20:01 | 55.85787 | -80.70983 | 35905 ft | 505 kts | 250° |
| 2026-05-06 20:01 | 55.83412 | -80.82748 | 35777 ft | 508 kts | 250° |
| 2026-05-06 20:02 | 55.82222 | -80.88609 | 35654 ft | 510 kts | 250° |
| 2026-05-06 20:02 | 55.81014 | -80.94534 | 35585 ft | 509 kts | 250° |
| 2026-05-06 20:02 | 55.78601 | -81.06319 | 35584 ft | 505 kts | 250° |
| 2026-05-06 20:03 | 55.76188 | -81.18006 | 35603 ft | 503 kts | 249° |
| 2026-05-06 20:03 | 55.73766 | -81.29660 | 35610 ft | 503 kts | 249° |
| 2026-05-06 20:04 | 55.71342 | -81.41248 | 35605 ft | 505 kts | 249° |
| 2026-05-06 20:04 | 55.68885 | -81.52926 | 35619 ft | 506 kts | 249° |
| 2026-05-06 20:05 | 55.66416 | -81.64593 | 35604 ft | 507 kts | 249° |
| 2026-05-06 20:05 | 55.63927 | -81.76281 | 35605 ft | 507 kts | 249° |
| 2026-05-06 20:06 | 55.61446 | -81.87863 | 35596 ft | 507 kts | 249° |
| 2026-05-06 20:06 | 55.58941 | -81.99492 | 35604 ft | 506 kts | 249° |
| 2026-05-06 20:07 | 55.56425 | -82.11098 | 35632 ft | 505 kts | 249° |
| 2026-05-06 20:07 | 55.53898 | -82.22690 | 35603 ft | 506 kts | 249° |
| 2026-05-06 20:08 | 55.51359 | -82.34275 | 35608 ft | 506 kts | 249° |
| 2026-05-06 20:08 | 55.48826 | -82.45769 | 35601 ft | 506 kts | 248° |
| 2026-05-06 20:09 | 55.46263 | -82.57326 | 35610 ft | 506 kts | 248° |
| 2026-05-06 20:09 | 55.43689 | -82.68876 | 35609 ft | 506 kts | 248° |
| 2026-05-06 20:10 | 55.41103 | -82.80415 | 35619 ft | 506 kts | 248° |
| 2026-05-06 20:10 | 55.38508 | -82.91933 | 35605 ft | 507 kts | 248° |
| 2026-05-06 20:11 | 55.35917 | -83.03374 | 35632 ft | 507 kts | 248° |
| 2026-05-06 20:11 | 55.33307 | -83.14859 | 35633 ft | 506 kts | 250° |
| 2026-05-06 20:12 | 55.30708 | -83.26328 | 35642 ft | 505 kts | 248° |
| 2026-05-06 20:12 | 55.28064 | -83.37756 | 35655 ft | 505 kts | 249° |
| 2026-05-06 20:13 | 55.25466 | -83.49089 | 35675 ft | 505 kts | 247° |
| 2026-05-06 20:13 | 55.22791 | -83.60460 | 35731 ft | 505 kts | 247° |
| 2026-05-06 20:14 | 55.20076 | -83.71829 | 35726 ft | 506 kts | 246° |
| 2026-05-06 20:14 | 55.17359 | -83.83204 | 35734 ft | 507 kts | 248° |
| 2026-05-06 20:15 | 55.15132 | -83.92693 | 35757 ft | 507 kts | 248° |
| 2026-05-06 20:15 | 55.12033 | -84.05954 | 35761 ft | 507 kts | 248° |
| 2026-05-06 20:16 | 55.09791 | -84.15496 | 35786 ft | 506 kts | 249° |
| 2026-05-06 20:16 | 55.07122 | -84.26752 | 35799 ft | 504 kts | 248° |
| 2026-05-06 20:17 | 55.04447 | -84.37957 | 35803 ft | 498 kts | 248° |
| 2026-05-06 20:17 | 55.01779 | -84.49031 | 35813 ft | 494 kts | 248° |
| 2026-05-06 20:18 | 54.99114 | -84.60024 | 35811 ft | 491 kts | 248° |
| 2026-05-06 20:18 | 54.96448 | -84.70944 | 35813 ft | 490 kts | 248° |
| 2026-05-06 20:19 | 54.93792 | -84.81757 | 35816 ft | 489 kts | 248° |
| 2026-05-06 20:19 | 54.91104 | -84.92640 | 35812 ft | 490 kts | 248° |
| 2026-05-06 20:20 | 54.88400 | -85.03527 | 35819 ft | 491 kts | 248° |
| 2026-05-06 20:20 | 54.85682 | -85.14410 | 35844 ft | 492 kts | 248° |
| 2026-05-06 20:21 | 54.82943 | -85.25327 | 35857 ft | 494 kts | 248° |
| 2026-05-06 20:21 | 54.80212 | -85.36163 | 35858 ft | 496 kts | 248° |
| 2026-05-06 20:22 | 54.77429 | -85.47143 | 35872 ft | 498 kts | 248° |
| 2026-05-06 20:22 | 54.74634 | -85.58114 | 35867 ft | 498 kts | 248° |
| 2026-05-06 20:23 | 54.71834 | -85.69053 | 35860 ft | 497 kts | 248° |
| 2026-05-06 20:23 | 54.69029 | -85.79952 | 35852 ft | 495 kts | 247° |
| 2026-05-06 20:24 | 54.66246 | -85.90718 | 35834 ft | 493 kts | 247° |
| 2026-05-06 20:24 | 54.63437 | -86.01524 | 35841 ft | 494 kts | 247° |
| 2026-05-06 20:25 | 54.60618 | -86.12318 | 35841 ft | 493 kts | 247° |
| 2026-05-06 20:25 | 54.57788 | -86.23105 | 35839 ft | 494 kts | 247° |
| 2026-05-06 20:26 | 54.54960 | -86.33841 | 35851 ft | 497 kts | 246° |
| 2026-05-06 20:26 | 54.52089 | -86.44681 | 35858 ft | 499 kts | 246° |
| 2026-05-06 20:27 | 54.49198 | -86.55545 | 35891 ft | 499 kts | 246° |
| 2026-05-06 20:27 | 54.46291 | -86.66417 | 35892 ft | 501 kts | 246° |
| 2026-05-06 20:28 | 54.43372 | -86.77287 | 35906 ft | 501 kts | 246° |
| 2026-05-06 20:28 | 54.40462 | -86.88067 | 35918 ft | 501 kts | 246° |
| 2026-05-06 20:29 | 54.37523 | -86.98901 | 35924 ft | 500 kts | 246° |
| 2026-05-06 20:29 | 54.34580 | -87.09706 | 35935 ft | 500 kts | 246° |
| 2026-05-06 20:30 | 54.30150 | -87.25861 | 35939 ft | 500 kts | 246° |
| 2026-05-06 20:31 | 54.27203 | -87.36543 | 35947 ft | 499 kts | 246° |
| 2026-05-06 20:31 | 54.24228 | -87.47278 | 35935 ft | 500 kts | 245° |
| 2026-05-06 20:32 | 54.21240 | -87.58003 | 35921 ft | 500 kts | 246° |
| 2026-05-06 20:32 | 54.18242 | -87.68725 | 35905 ft | 500 kts | 245° |
| 2026-05-06 20:33 | 54.15238 | -87.79415 | 35893 ft | 499 kts | 245° |
| 2026-05-06 20:33 | 54.12249 | -87.90006 | 35888 ft | 499 kts | 245° |
| 2026-05-06 20:34 | 54.09233 | -88.00644 | 35880 ft | 498 kts | 245° |
| 2026-05-06 20:34 | 54.06211 | -88.11256 | 35877 ft | 498 kts | 245° |
| 2026-05-06 20:35 | 54.03182 | -88.21841 | 35879 ft | 498 kts | 245° |
| 2026-05-06 20:35 | 54.00162 | -88.32345 | 35879 ft | 498 kts | 245° |
| 2026-05-06 20:36 | 53.97113 | -88.42906 | 35879 ft | 498 kts | 245° |
| 2026-05-06 20:36 | 53.94054 | -88.53452 | 35877 ft | 498 kts | 245° |
| 2026-05-06 20:37 | 53.90990 | -88.63966 | 35875 ft | 497 kts | 245° |
| 2026-05-06 20:37 | 53.87941 | -88.74383 | 35875 ft | 496 kts | 245° |
| 2026-05-06 20:38 | 53.84866 | -88.84843 | 35875 ft | 496 kts | 245° |
| 2026-05-06 20:38 | 53.81782 | -88.95283 | 35876 ft | 496 kts | 244° |
| 2026-05-06 20:39 | 53.78687 | -89.05717 | 35876 ft | 496 kts | 244° |
| 2026-05-06 20:39 | 53.75583 | -89.16133 | 35880 ft | 496 kts | 244° |
| 2026-05-06 20:40 | 53.72487 | -89.26474 | 35881 ft | 496 kts | 244° |
| 2026-05-06 20:40 | 53.69361 | -89.36868 | 35885 ft | 497 kts | 244° |
| 2026-05-06 20:41 | 53.66225 | -89.47250 | 35885 ft | 497 kts | 244° |
| 2026-05-06 20:41 | 53.63078 | -89.57617 | 35886 ft | 497 kts | 244° |
| 2026-05-06 20:42 | 53.59941 | -89.67901 | 35894 ft | 497 kts | 244° |
| 2026-05-06 20:42 | 53.56775 | -89.78227 | 35899 ft | 496 kts | 244° |
| 2026-05-06 20:43 | 53.53594 | -89.88537 | 35901 ft | 496 kts | 244° |
| 2026-05-06 20:43 | 53.50484 | -89.98882 | 35907 ft | 496 kts | 246° |
| 2026-05-06 20:44 | 53.47697 | -90.09485 | 35907 ft | 496 kts | 248° |
| 2026-05-06 20:44 | 53.45067 | -90.20185 | 35913 ft | 496 kts | 249° |
| 2026-05-06 20:45 | 53.42500 | -90.30841 | 35920 ft | 496 kts | 249° |
| 2026-05-06 20:45 | 53.39924 | -90.41561 | 35930 ft | 496 kts | 249° |
| 2026-05-06 20:46 | 53.37332 | -90.52284 | 35932 ft | 496 kts | 249° |
| 2026-05-06 20:46 | 53.34726 | -90.62988 | 35932 ft | 497 kts | 249° |
| 2026-05-06 20:47 | 53.32103 | -90.73674 | 35934 ft | 497 kts | 249° |
| 2026-05-06 20:47 | 53.29466 | -90.84346 | 35934 ft | 497 kts | 248° |
| 2026-05-06 20:48 | 53.26832 | -90.94933 | 35934 ft | 497 kts | 248° |
| 2026-05-06 20:48 | 53.24167 | -91.05575 | 35935 ft | 496 kts | 248° |
| 2026-05-06 20:49 | 53.21495 | -91.16188 | 35936 ft | 496 kts | 248° |
| 2026-05-06 20:49 | 53.18808 | -91.26797 | 35938 ft | 496 kts | 248° |
| 2026-05-06 20:50 | 53.16130 | -91.37320 | 35939 ft | 496 kts | 248° |
| 2026-05-06 20:50 | 53.13424 | -91.47897 | 35943 ft | 496 kts | 248° |
| 2026-05-06 20:51 | 53.10710 | -91.58453 | 35945 ft | 496 kts | 248° |
| 2026-05-06 20:51 | 53.07984 | -91.69001 | 35948 ft | 496 kts | 248° |
| 2026-05-06 20:52 | 53.05251 | -91.79527 | 35954 ft | 496 kts | 248° |
| 2026-05-06 20:52 | 53.02510 | -91.90036 | 35957 ft | 496 kts | 248° |
| 2026-05-06 20:53 | 52.99776 | -92.00469 | 35960 ft | 496 kts | 247° |
| 2026-05-06 20:53 | 52.97015 | -92.10957 | 35963 ft | 496 kts | 247° |
| 2026-05-06 20:54 | 52.94246 | -92.21424 | 35965 ft | 496 kts | 247° |
| 2026-05-06 20:54 | 52.91464 | -92.31895 | 35967 ft | 496 kts | 247° |
| 2026-05-06 20:55 | 52.88673 | -92.42349 | 35972 ft | 496 kts | 247° |
| 2026-05-06 20:55 | 52.85891 | -92.52726 | 35973 ft | 497 kts | 247° |
| 2026-05-06 20:56 | 52.83080 | -92.63159 | 35976 ft | 497 kts | 247° |
| 2026-05-06 20:56 | 52.80258 | -92.73586 | 35981 ft | 497 kts | 247° |
| 2026-05-06 20:57 | 52.77424 | -92.84012 | 35983 ft | 497 kts | 247° |
| 2026-05-06 20:57 | 52.74600 | -92.94354 | 35985 ft | 498 kts | 247° |
| 2026-05-06 20:58 | 52.71746 | -93.04758 | 35984 ft | 498 kts | 247° |
| 2026-05-06 20:58 | 52.68885 | -93.15140 | 35983 ft | 498 kts | 246° |
| 2026-05-06 20:59 | 52.66013 | -93.25518 | 35983 ft | 498 kts | 246° |
| 2026-05-06 20:59 | 52.63131 | -93.35882 | 35982 ft | 498 kts | 246° |
| 2026-05-06 21:00 | 52.60242 | -93.46226 | 35982 ft | 498 kts | 246° |
| 2026-05-06 21:00 | 52.57364 | -93.56488 | 35983 ft | 498 kts | 246° |
| 2026-05-06 21:01 | 52.54453 | -93.66818 | 35987 ft | 498 kts | 246° |
| 2026-05-06 21:01 | 52.51536 | -93.77127 | 35990 ft | 498 kts | 246° |
| 2026-05-06 21:02 | 52.48610 | -93.87420 | 35988 ft | 498 kts | 246° |
| 2026-05-06 21:02 | 52.45672 | -93.97710 | 35989 ft | 498 kts | 246° |
| 2026-05-06 21:03 | 52.42745 | -94.07917 | 35992 ft | 498 kts | 246° |
| 2026-05-06 21:03 | 52.39787 | -94.18189 | 35993 ft | 499 kts | 246° |
| 2026-05-06 21:04 | 52.36820 | -94.28449 | 35993 ft | 499 kts | 246° |
| 2026-05-06 21:04 | 52.33843 | -94.38698 | 35993 ft | 499 kts | 246° |
| 2026-05-06 21:05 | 52.30878 | -94.48860 | 35993 ft | 499 kts | 246° |
| 2026-05-06 21:05 | 52.27882 | -94.59086 | 35993 ft | 499 kts | 246° |
| 2026-05-06 21:06 | 52.24877 | -94.69297 | 35994 ft | 499 kts | 246° |
| 2026-05-06 21:06 | 52.21860 | -94.79506 | 35995 ft | 499 kts | 246° |
| 2026-05-06 21:07 | 52.18854 | -94.89633 | 35996 ft | 500 kts | 246° |
| 2026-05-06 21:07 | 52.15820 | -94.99812 | 35996 ft | 500 kts | 246° |
| 2026-05-06 21:08 | 52.12777 | -95.09981 | 35995 ft | 500 kts | 246° |
| 2026-05-06 21:08 | 52.09723 | -95.20143 | 36001 ft | 500 kts | 246° |
| 2026-05-06 21:09 | 52.06661 | -95.30285 | 36007 ft | 500 kts | 245° |
| 2026-05-06 21:09 | 52.03609 | -95.40355 | 36010 ft | 500 kts | 246° |
| 2026-05-06 21:10 | 52.00528 | -95.50477 | 36020 ft | 500 kts | 245° |
| 2026-05-06 21:10 | 51.97436 | -95.60591 | 36020 ft | 500 kts | 245° |
| 2026-05-06 21:11 | 51.94337 | -95.70686 | 36034 ft | 500 kts | 245° |
| 2026-05-06 21:11 | 51.91248 | -95.80707 | 36044 ft | 500 kts | 245° |
| 2026-05-06 21:12 | 51.88132 | -95.90775 | 36054 ft | 498 kts | 245° |
| 2026-05-06 21:12 | 51.85025 | -96.00767 | 36045 ft | 496 kts | 245° |
| 2026-05-06 21:13 | 51.81913 | -96.10739 | 36044 ft | 496 kts | 245° |
| 2026-05-06 21:13 | 51.78809 | -96.20643 | 36046 ft | 492 kts | 245° |
| 2026-05-06 21:14 | 51.75728 | -96.30428 | 36044 ft | 492 kts | 245° |
| 2026-05-06 21:14 | 51.72632 | -96.40229 | 36043 ft | 489 kts | 245° |
| 2026-05-06 21:15 | 51.69542 | -96.49966 | 36040 ft | 487 kts | 245° |
| 2026-05-06 21:15 | 51.66447 | -96.59679 | 36036 ft | 488 kts | 245° |
| 2026-05-06 21:16 | 51.63352 | -96.69360 | 36036 ft | 490 kts | 245° |
| 2026-05-06 21:16 | 51.60215 | -96.79140 | 36032 ft | 493 kts | 245° |
| 2026-05-06 21:17 | 51.57057 | -96.88944 | 36033 ft | 494 kts | 245° |
| 2026-05-06 21:17 | 51.53886 | -96.98752 | 36026 ft | 496 kts | 245° |
| 2026-05-06 21:18 | 51.50718 | -97.08506 | 36024 ft | 496 kts | 245° |
| 2026-05-06 21:18 | 51.47522 | -97.18311 | 36012 ft | 496 kts | 245° |
| 2026-05-06 21:19 | 51.44314 | -97.28112 | 36007 ft | 497 kts | 245° |
| 2026-05-06 21:19 | 51.41095 | -97.37907 | 36008 ft | 497 kts | 245° |
| 2026-05-06 21:20 | 51.37860 | -97.47710 | 36002 ft | 498 kts | 245° |
| 2026-05-06 21:20 | 51.34635 | -97.57449 | 35986 ft | 500 kts | 245° |
| 2026-05-06 21:21 | 51.31367 | -97.67277 | 35991 ft | 501 kts | 244° |
| 2026-05-06 21:21 | 51.28088 | -97.77093 | 36003 ft | 501 kts | 244° |
| 2026-05-06 21:22 | 51.24794 | -97.86920 | 35998 ft | 502 kts | 244° |
| 2026-05-06 21:22 | 51.21486 | -97.96754 | 35996 ft | 503 kts | 244° |
| 2026-05-06 21:23 | 51.18191 | -98.06508 | 35998 ft | 503 kts | 244° |
| 2026-05-06 21:23 | 51.14864 | -98.16318 | 35997 ft | 503 kts | 244° |
| 2026-05-06 21:24 | 51.11528 | -98.26117 | 35997 ft | 503 kts | 244° |
| 2026-05-06 21:24 | 51.08187 | -98.35890 | 36001 ft | 501 kts | 244° |
| 2026-05-06 21:25 | 51.04864 | -98.45566 | 35999 ft | 497 kts | 244° |
| 2026-05-06 21:25 | 51.01560 | -98.55154 | 36010 ft | 499 kts | 244° |
| 2026-05-06 21:26 | 50.98224 | -98.64796 | 36013 ft | 497 kts | 244° |
| 2026-05-06 21:26 | 50.94889 | -98.74360 | 36012 ft | 494 kts | 243° |
| 2026-05-06 21:27 | 50.91551 | -98.83827 | 36016 ft | 489 kts | 243° |
| 2026-05-06 21:27 | 50.88256 | -98.93135 | 36013 ft | 487 kts | 243° |
| 2026-05-06 21:28 | 50.84933 | -99.02512 | 36019 ft | 490 kts | 243° |
| 2026-05-06 21:28 | 50.81603 | -99.11907 | 36018 ft | 489 kts | 243° |
| 2026-05-06 21:29 | 50.78268 | -99.21303 | 36014 ft | 490 kts | 243° |
| 2026-05-06 21:29 | 50.74930 | -99.30692 | 36010 ft | 491 kts | 243° |
| 2026-05-06 21:30 | 50.71603 | -99.40024 | 36008 ft | 491 kts | 243° |
| 2026-05-06 21:30 | 50.68244 | -99.49420 | 36002 ft | 492 kts | 243° |
| 2026-05-06 21:31 | 50.64874 | -99.58821 | 36000 ft | 494 kts | 243° |
| 2026-05-06 21:31 | 50.61488 | -99.68232 | 35999 ft | 493 kts | 243° |
| 2026-05-06 21:32 | 50.58121 | -99.77558 | 35996 ft | 493 kts | 243° |
| 2026-05-06 21:32 | 50.53043 | -99.91576 | 35995 ft | 491 kts | 243° |
| 2026-05-06 21:33 | 50.49440 | -100.00683 | 35998 ft | 490 kts | 238° |
| 2026-05-06 21:33 | 50.45365 | -100.09245 | 35994 ft | 489 kts | 234° |
| 2026-05-06 21:34 | 50.41135 | -100.17488 | 35992 ft | 487 kts | 233° |
| 2026-05-06 21:34 | 50.36822 | -100.25662 | 35987 ft | 485 kts | 233° |
| 2026-05-06 21:35 | 50.32500 | -100.33773 | 35990 ft | 484 kts | 233° |
| 2026-05-06 21:35 | 50.28182 | -100.41859 | 35994 ft | 485 kts | 233° |
| 2026-05-06 21:36 | 50.23840 | -100.49990 | 35983 ft | 489 kts | 233° |
| 2026-05-06 21:36 | 50.19500 | -100.58115 | 35988 ft | 491 kts | 233° |
| 2026-05-06 21:37 | 50.15126 | -100.66293 | 35991 ft | 491 kts | 233° |
| 2026-05-06 21:37 | 50.10741 | -100.74482 | 35989 ft | 493 kts | 233° |
| 2026-05-06 21:38 | 50.06338 | -100.82688 | 35991 ft | 494 kts | 233° |
| 2026-05-06 21:38 | 50.01953 | -100.90841 | 35992 ft | 495 kts | 233° |
| 2026-05-06 21:39 | 49.97540 | -100.99025 | 35992 ft | 493 kts | 233° |
| 2026-05-06 21:39 | 49.93136 | -101.07169 | 35993 ft | 492 kts | 233° |
| 2026-05-06 21:40 | 49.88737 | -101.15282 | 35991 ft | 491 kts | 233° |
| 2026-05-06 21:40 | 49.84356 | -101.23342 | 35993 ft | 493 kts | 233° |
| 2026-05-06 21:41 | 49.79948 | -101.31429 | 35995 ft | 489 kts | 232° |
| 2026-05-06 21:41 | 49.75558 | -101.39455 | 35988 ft | 491 kts | 232° |
| 2026-05-06 21:42 | 49.71120 | -101.47554 | 35994 ft | 496 kts | 232° |
| 2026-05-06 21:42 | 49.66635 | -101.55710 | 35995 ft | 500 kts | 232° |
| 2026-05-06 21:43 | 49.62147 | -101.63845 | 35996 ft | 503 kts | 232° |
| 2026-05-06 21:43 | 49.57598 | -101.72063 | 35998 ft | 505 kts | 232° |
| 2026-05-06 21:44 | 49.53032 | -101.80284 | 36002 ft | 505 kts | 232° |
| 2026-05-06 21:44 | 49.48455 | -101.88496 | 36005 ft | 505 kts | 232° |
| 2026-05-06 21:45 | 49.43880 | -101.96680 | 36008 ft | 505 kts | 232° |
| 2026-05-06 21:45 | 49.39320 | -102.04814 | 36010 ft | 506 kts | 232° |
| 2026-05-06 21:46 | 49.34720 | -102.12991 | 36015 ft | 506 kts | 232° |
| 2026-05-06 21:46 | 49.30117 | -102.21149 | 36015 ft | 506 kts | 232° |
| 2026-05-06 21:47 | 49.25532 | -102.29255 | 36015 ft | 507 kts | 232° |
| 2026-05-06 21:47 | 49.20905 | -102.37406 | 36015 ft | 508 kts | 232° |
| 2026-05-06 21:48 | 49.16266 | -102.45554 | 36013 ft | 508 kts | 232° |
| 2026-05-06 21:48 | 49.11625 | -102.53681 | 36013 ft | 508 kts | 232° |
| 2026-05-06 21:49 | 49.06971 | -102.61804 | 36010 ft | 509 kts | 232° |
| 2026-05-06 21:49 | 49.02341 | -102.69860 | 36008 ft | 509 kts | 232° |
| 2026-05-06 21:50 | 48.97671 | -102.77962 | 36004 ft | 509 kts | 232° |
| 2026-05-06 21:50 | 48.92993 | -102.86052 | 36001 ft | 509 kts | 232° |
| 2026-05-06 21:51 | 48.88309 | -102.94128 | 36002 ft | 509 kts | 232° |
| 2026-05-06 21:51 | 48.83650 | -103.02136 | 36004 ft | 509 kts | 231° |
| 2026-05-06 21:52 | 48.78956 | -103.10180 | 36008 ft | 509 kts | 231° |
| 2026-05-06 21:52 | 48.74255 | -103.18211 | 36014 ft | 509 kts | 231° |
| 2026-05-06 21:53 | 48.69549 | -103.26227 | 36015 ft | 509 kts | 231° |
| 2026-05-06 21:53 | 48.64878 | -103.34156 | 36016 ft | 507 kts | 231° |
| 2026-05-06 21:54 | 48.60189 | -103.42092 | 36010 ft | 506 kts | 231° |
| 2026-05-06 21:54 | 48.55510 | -103.49987 | 36006 ft | 502 kts | 231° |
| 2026-05-06 21:55 | 48.50866 | -103.57800 | 36001 ft | 499 kts | 231° |
| 2026-05-06 21:55 | 48.46235 | -103.65570 | 35997 ft | 497 kts | 231° |
| 2026-05-06 21:56 | 48.41639 | -103.73260 | 35992 ft | 497 kts | 231° |
| 2026-05-06 21:56 | 48.37001 | -103.81000 | 35991 ft | 499 kts | 231° |
| 2026-05-06 21:57 | 48.32346 | -103.88747 | 35991 ft | 500 kts | 231° |
| 2026-05-06 21:57 | 48.27674 | -103.96497 | 35990 ft | 500 kts | 231° |
| 2026-05-06 21:58 | 48.23036 | -104.04163 | 35986 ft | 498 kts | 231° |
| 2026-05-06 21:58 | 48.18385 | -104.11830 | 35981 ft | 497 kts | 231° |
| 2026-05-06 21:59 | 48.13732 | -104.19477 | 35983 ft | 495 kts | 231° |
| 2026-05-06 21:59 | 48.09108 | -104.27053 | 35975 ft | 490 kts | 231° |
| 2026-05-06 22:00 | 48.04497 | -104.34591 | 35971 ft | 495 kts | 231° |
| 2026-05-06 22:00 | 47.99852 | -104.42175 | 35978 ft | 502 kts | 231° |
| 2026-05-06 22:01 | 47.95121 | -104.49869 | 35994 ft | 503 kts | 231° |
| 2026-05-06 22:01 | 47.90381 | -104.57548 | 35988 ft | 504 kts | 231° |
| 2026-05-06 22:02 | 47.85632 | -104.65217 | 35979 ft | 503 kts | 231° |
| 2026-05-06 22:02 | 47.80892 | -104.72849 | 35980 ft | 502 kts | 231° |
| 2026-05-06 22:03 | 47.76179 | -104.80421 | 35989 ft | 502 kts | 231° |
| 2026-05-06 22:03 | 47.71426 | -104.88032 | 35981 ft | 503 kts | 231° |
| 2026-05-06 22:04 | 47.66644 | -104.95678 | 35983 ft | 508 kts | 231° |
| 2026-05-06 22:04 | 47.61817 | -105.03371 | 35987 ft | 511 kts | 231° |
| 2026-05-06 22:05 | 47.56949 | -105.11104 | 35983 ft | 514 kts | 231° |
| 2026-05-06 22:05 | 47.52086 | -105.18804 | 35977 ft | 516 kts | 230° |
| 2026-05-06 22:06 | 47.47168 | -105.26567 | 35968 ft | 518 kts | 230° |
| 2026-05-06 22:06 | 47.42236 | -105.34329 | 35963 ft | 518 kts | 230° |
| 2026-05-06 22:07 | 47.37297 | -105.42076 | 35965 ft | 518 kts | 230° |
| 2026-05-06 22:07 | 47.32356 | -105.49806 | 35948 ft | 518 kts | 230° |
| 2026-05-06 22:08 | 47.27438 | -105.57483 | 35948 ft | 519 kts | 230° |
| 2026-05-06 22:08 | 47.22486 | -105.65190 | 35943 ft | 518 kts | 230° |
| 2026-05-06 22:09 | 47.17538 | -105.72872 | 35942 ft | 517 kts | 230° |
| 2026-05-06 22:09 | 47.12583 | -105.80546 | 35942 ft | 518 kts | 230° |
| 2026-05-06 22:10 | 47.07652 | -105.88165 | 35940 ft | 518 kts | 230° |
| 2026-05-06 22:10 | 47.02690 | -105.95814 | 35937 ft | 518 kts | 230° |
| 2026-05-06 22:11 | 46.97592 | -106.03315 | 35937 ft | 520 kts | 227° |
| 2026-05-06 22:11 | 46.92372 | -106.10654 | 35940 ft | 520 kts | 227° |
| 2026-05-06 22:12 | 46.87147 | -106.17855 | 35945 ft | 519 kts | 226° |
| 2026-05-06 22:12 | 46.81868 | -106.25071 | 35943 ft | 520 kts | 226° |
| 2026-05-06 22:13 | 46.76574 | -106.32283 | 35949 ft | 520 kts | 226° |
| 2026-05-06 22:13 | 46.71294 | -106.39460 | 35970 ft | 518 kts | 226° |
| 2026-05-06 22:14 | 46.66016 | -106.46623 | 35961 ft | 519 kts | 226° |
| 2026-05-06 22:14 | 46.60759 | -106.53747 | 35959 ft | 520 kts | 226° |
| 2026-05-06 22:15 | 46.55466 | -106.60909 | 35983 ft | 519 kts | 226° |
| 2026-05-06 22:15 | 46.50190 | -106.68033 | 35984 ft | 518 kts | 226° |
| 2026-05-06 22:16 | 46.44904 | -106.75153 | 35980 ft | 519 kts | 226° |
| 2026-05-06 22:16 | 46.39644 | -106.82222 | 35987 ft | 519 kts | 226° |
| 2026-05-06 22:17 | 46.34359 | -106.89307 | 35990 ft | 518 kts | 226° |
| 2026-05-06 22:17 | 46.29066 | -106.96385 | 35987 ft | 519 kts | 226° |
| 2026-05-06 22:18 | 46.23762 | -107.03460 | 35990 ft | 519 kts | 226° |
| 2026-05-06 22:18 | 46.18448 | -107.10528 | 35992 ft | 519 kts | 226° |
| 2026-05-06 22:19 | 46.13165 | -107.17537 | 35990 ft | 520 kts | 226° |
| 2026-05-06 22:19 | 46.07839 | -107.24584 | 35989 ft | 520 kts | 226° |
| 2026-05-06 22:20 | 46.02506 | -107.31621 | 35988 ft | 520 kts | 225° |
| 2026-05-06 22:20 | 45.97168 | -107.38645 | 35985 ft | 520 kts | 225° |
| 2026-05-06 22:21 | 45.91859 | -107.45613 | 35980 ft | 521 kts | 225° |
| 2026-05-06 22:21 | 45.86509 | -107.52620 | 35975 ft | 521 kts | 225° |
| 2026-05-06 22:22 | 45.81152 | -107.59616 | 35971 ft | 521 kts | 225° |
| 2026-05-06 22:22 | 45.75790 | -107.66597 | 35969 ft | 520 kts | 225° |
| 2026-05-06 22:23 | 45.70439 | -107.73547 | 35968 ft | 520 kts | 225° |
| 2026-05-06 22:23 | 45.65118 | -107.80442 | 35968 ft | 520 kts | 225° |
| 2026-05-06 22:24 | 45.59758 | -107.87371 | 35973 ft | 520 kts | 225° |
| 2026-05-06 22:24 | 45.54391 | -107.94300 | 35976 ft | 520 kts | 225° |
| 2026-05-06 22:25 | 45.48890 | -108.01030 | 35979 ft | 522 kts | 221° |
| 2026-05-06 22:25 | 45.43175 | -108.07319 | 35980 ft | 523 kts | 220° |
| 2026-05-06 22:26 | 45.37310 | -108.13470 | 35983 ft | 524 kts | 219° |
| 2026-05-06 22:26 | 45.31408 | -108.19541 | 35983 ft | 524 kts | 219° |
| 2026-05-06 22:27 | 45.25496 | -108.25580 | 35984 ft | 523 kts | 219° |
| 2026-05-06 22:27 | 45.20595 | -108.30572 | 35991 ft | 520 kts | 219° |
| 2026-05-06 22:28 | 45.13787 | -108.37505 | 35992 ft | 517 kts | 219° |
| 2026-05-06 22:28 | 45.07963 | -108.43440 | 35995 ft | 516 kts | 219° |
| 2026-05-06 22:29 | 45.03131 | -108.48362 | 36000 ft | 515 kts | 219° |
| 2026-05-06 22:29 | 44.97321 | -108.54274 | 36006 ft | 515 kts | 219° |
| 2026-05-06 22:30 | 44.90560 | -108.61146 | 36015 ft | 516 kts | 219° |
| 2026-05-06 22:30 | 44.84719 | -108.67072 | 36019 ft | 518 kts | 219° |
| 2026-05-06 22:31 | 44.79852 | -108.72001 | 36026 ft | 519 kts | 219° |
| 2026-05-06 22:31 | 44.73985 | -108.77930 | 36025 ft | 520 kts | 219° |
| 2026-05-06 22:32 | 44.68095 | -108.83868 | 36023 ft | 522 kts | 219° |
| 2026-05-06 22:32 | 44.62185 | -108.89810 | 36037 ft | 523 kts | 219° |
| 2026-05-06 22:33 | 44.56303 | -108.95711 | 36046 ft | 524 kts | 219° |
| 2026-05-06 22:33 | 44.50359 | -109.01662 | 36046 ft | 526 kts | 219° |
| 2026-05-06 22:34 | 44.44391 | -109.07622 | 36052 ft | 527 kts | 219° |
| 2026-05-06 22:34 | 44.38415 | -109.13573 | 36064 ft | 528 kts | 219° |
| 2026-05-06 22:35 | 44.32427 | -109.19522 | 36077 ft | 529 kts | 219° |
| 2026-05-06 22:35 | 44.26463 | -109.25431 | 36092 ft | 530 kts | 219° |
| 2026-05-06 22:36 | 44.20446 | -109.31378 | 36105 ft | 531 kts | 219° |
| 2026-05-06 22:36 | 44.14413 | -109.37325 | 36114 ft | 532 kts | 219° |
| 2026-05-06 22:37 | 44.08370 | -109.43264 | 36126 ft | 531 kts | 219° |
| 2026-05-06 22:37 | 44.02387 | -109.49131 | 36126 ft | 531 kts | 220° |
| 2026-05-06 22:38 | 43.96345 | -109.55042 | 36128 ft | 532 kts | 220° |
| 2026-05-06 22:38 | 43.90289 | -109.60959 | 36120 ft | 532 kts | 219° |
| 2026-05-06 22:39 | 43.84238 | -109.66855 | 36114 ft | 532 kts | 219° |
| 2026-05-06 22:39 | 43.78176 | -109.72739 | 36125 ft | 532 kts | 220° |
| 2026-05-06 22:40 | 43.72152 | -109.78583 | 36109 ft | 532 kts | 219° |
| 2026-05-06 22:40 | 43.66088 | -109.84452 | 36097 ft | 532 kts | 219° |
| 2026-05-06 22:41 | 43.57008 | -109.93212 | 36095 ft | 530 kts | 219° |
| 2026-05-06 22:42 | 43.50912 | -109.98934 | 36100 ft | 532 kts | 216° |
| 2026-05-06 22:42 | 43.44542 | -110.04025 | 36110 ft | 534 kts | 212° |
| 2026-05-06 22:43 | 43.37976 | -110.08782 | 36121 ft | 532 kts | 212° |
| 2026-05-06 22:43 | 43.31383 | -110.13364 | 36122 ft | 530 kts | 211° |
| 2026-05-06 22:44 | 43.24787 | -110.17886 | 36124 ft | 531 kts | 210° |
| 2026-05-06 22:44 | 43.18168 | -110.22404 | 36138 ft | 531 kts | 211° |
| 2026-05-06 22:45 | 43.11590 | -110.26898 | 36141 ft | 533 kts | 211° |
| 2026-05-06 22:45 | 43.04949 | -110.31438 | 36151 ft | 533 kts | 211° |
| 2026-05-06 22:46 | 42.98334 | -110.35962 | 36176 ft | 530 kts | 211° |
| 2026-05-06 22:46 | 42.91732 | -110.40482 | 36132 ft | 532 kts | 211° |
| 2026-05-06 22:47 | 42.85164 | -110.44980 | 36152 ft | 532 kts | 211° |
| 2026-05-06 22:47 | 42.78553 | -110.49499 | 36158 ft | 532 kts | 211° |
| 2026-05-06 22:48 | 42.71934 | -110.54023 | 36161 ft | 533 kts | 211° |
| 2026-05-06 22:48 | 42.65302 | -110.58539 | 36166 ft | 532 kts | 211° |
| 2026-05-06 22:49 | 42.58735 | -110.63034 | 36143 ft | 531 kts | 213° |
| 2026-05-06 22:49 | 42.52176 | -110.67545 | 36152 ft | 527 kts | 212° |
| 2026-05-06 22:50 | 42.45621 | -110.72035 | 36117 ft | 529 kts | 212° |
| 2026-05-06 22:50 | 42.39057 | -110.76505 | 36152 ft | 528 kts | 212° |
| 2026-05-06 22:51 | 42.32529 | -110.80926 | 36159 ft | 528 kts | 212° |
| 2026-05-06 22:51 | 42.25956 | -110.85360 | 36149 ft | 528 kts | 212° |
| 2026-05-06 22:52 | 42.19410 | -110.89756 | 36147 ft | 525 kts | 212° |
| 2026-05-06 22:52 | 42.12916 | -110.94103 | 36163 ft | 517 kts | 213° |
| 2026-05-06 22:53 | 42.06494 | -110.98390 | 36164 ft | 513 kts | 213° |
| 2026-05-06 22:53 | 42.00140 | -111.02630 | 36148 ft | 513 kts | 212° |
| 2026-05-06 22:54 | 41.93743 | -111.06895 | 36154 ft | 514 kts | 212° |
| 2026-05-06 22:54 | 41.87332 | -111.11158 | 36152 ft | 515 kts | 212° |
| 2026-05-06 22:55 | 41.80891 | -111.15433 | 36156 ft | 518 kts | 212° |
| 2026-05-06 22:55 | 41.74466 | -111.19685 | 36164 ft | 519 kts | 212° |
| 2026-05-06 22:56 | 41.67967 | -111.23979 | 36168 ft | 523 kts | 211° |
| 2026-05-06 22:56 | 41.61434 | -111.28278 | 36190 ft | 523 kts | 211° |
| 2026-05-06 22:57 | 41.54905 | -111.32560 | 36193 ft | 523 kts | 211° |
| 2026-05-06 22:57 | 41.48349 | -111.36855 | 36183 ft | 526 kts | 210° |
| 2026-05-06 22:58 | 41.41823 | -111.41114 | 36202 ft | 525 kts | 211° |
| 2026-05-06 22:58 | 41.35250 | -111.45397 | 36204 ft | 527 kts | 210° |
| 2026-05-06 22:59 | 41.28652 | -111.49687 | 36181 ft | 528 kts | 210° |
| 2026-05-06 22:59 | 41.22057 | -111.53963 | 36155 ft | 527 kts | 210° |
| 2026-05-06 23:00 | 41.15462 | -111.58228 | 36181 ft | 528 kts | 210° |
| 2026-05-06 23:00 | 41.08887 | -111.62473 | 36193 ft | 530 kts | 210° |
| 2026-05-06 23:01 | 41.02248 | -111.66751 | 36198 ft | 532 kts | 210° |
| 2026-05-06 23:01 | 40.95593 | -111.71029 | 36173 ft | 532 kts | 210° |
| 2026-05-06 23:02 | 40.88981 | -111.75264 | 36094 ft | 525 kts | 210° |
| 2026-05-06 23:02 | 40.82430 | -111.79446 | 36083 ft | 521 kts | 209° |
| 2026-05-06 23:03 | 40.75954 | -111.83575 | 36092 ft | 519 kts | 209° |
| 2026-05-06 23:03 | 40.69457 | -111.87711 | 36094 ft | 518 kts | 209° |
| 2026-05-06 23:04 | 40.62969 | -111.91832 | 36109 ft | 518 kts | 209° |
| 2026-05-06 23:04 | 40.56477 | -111.95942 | 36166 ft | 517 kts | 209° |
| 2026-05-06 23:05 | 40.49979 | -112.00020 | 36184 ft | 519 kts | 208° |
| 2026-05-06 23:05 | 40.43483 | -112.04029 | 36185 ft | 520 kts | 208° |
| 2026-05-06 23:06 | 40.36918 | -112.08044 | 36144 ft | 521 kts | 207° |
| 2026-05-06 23:06 | 40.30356 | -112.12030 | 36097 ft | 519 kts | 207° |
| 2026-05-06 23:07 | 40.23804 | -112.15991 | 36087 ft | 518 kts | 208° |
| 2026-05-06 23:07 | 40.17305 | -112.19905 | 36134 ft | 518 kts | 207° |
| 2026-05-06 23:08 | 40.10754 | -112.23846 | 36124 ft | 520 kts | 207° |
| 2026-05-06 23:08 | 40.04172 | -112.27797 | 36151 ft | 521 kts | 207° |
| 2026-05-06 23:09 | 39.97565 | -112.31757 | 36141 ft | 523 kts | 207° |
| 2026-05-06 23:09 | 39.90941 | -112.35718 | 36141 ft | 524 kts | 207° |
| 2026-05-06 23:10 | 39.84314 | -112.39667 | 36195 ft | 523 kts | 207° |
| 2026-05-06 23:10 | 39.77731 | -112.43586 | 36207 ft | 524 kts | 208° |
| 2026-05-06 23:11 | 39.71086 | -112.47537 | 36223 ft | 525 kts | 207° |
| 2026-05-06 23:11 | 39.64436 | -112.51477 | 36195 ft | 526 kts | 207° |
| 2026-05-06 23:12 | 39.57758 | -112.55423 | 36191 ft | 529 kts | 207° |
| 2026-05-06 23:12 | 39.51102 | -112.59349 | 36202 ft | 529 kts | 207° |
| 2026-05-06 23:13 | 39.44407 | -112.63287 | 36171 ft | 528 kts | 206° |
| 2026-05-06 23:13 | 39.37728 | -112.67225 | 36150 ft | 526 kts | 207° |
| 2026-05-06 23:14 | 39.31111 | -112.71164 | 36102 ft | 521 kts | 207° |
| 2026-05-06 23:14 | 39.24543 | -112.75068 | 36113 ft | 519 kts | 207° |
| 2026-05-06 23:15 | 39.17982 | -112.78950 | 36137 ft | 519 kts | 207° |
| 2026-05-06 23:15 | 39.11446 | -112.82798 | 36149 ft | 521 kts | 207° |
| 2026-05-06 23:16 | 39.04834 | -112.86671 | 36167 ft | 523 kts | 208° |
| 2026-05-06 23:16 | 38.98180 | -112.90533 | 36177 ft | 525 kts | 206° |
| 2026-05-06 23:17 | 38.91489 | -112.94328 | 36190 ft | 526 kts | 206° |
| 2026-05-06 23:17 | 38.84771 | -112.98113 | 36193 ft | 528 kts | 206° |
| 2026-05-06 23:18 | 38.78095 | -113.01878 | 36198 ft | 528 kts | 206° |
| 2026-05-06 23:18 | 38.71374 | -113.05681 | 36199 ft | 528 kts | 205° |
| 2026-05-06 23:19 | 38.64662 | -113.09490 | 36194 ft | 527 kts | 205° |
| 2026-05-06 23:19 | 38.57975 | -113.13292 | 36181 ft | 525 kts | 205° |
| 2026-05-06 23:20 | 38.51317 | -113.17082 | 36193 ft | 523 kts | 205° |
| 2026-05-06 23:20 | 38.44682 | -113.20857 | 36186 ft | 522 kts | 205° |
| 2026-05-06 23:21 | 38.38096 | -113.24607 | 36170 ft | 522 kts | 205° |
| 2026-05-06 23:21 | 38.31460 | -113.28380 | 36135 ft | 523 kts | 206° |
| 2026-05-06 23:22 | 38.25015 | -113.32033 | 36144 ft | 520 kts | 206° |
| 2026-05-06 23:22 | 38.18418 | -113.35774 | 36111 ft | 519 kts | 205° |
| 2026-05-06 23:23 | 38.11821 | -113.39510 | 36102 ft | 518 kts | 206° |
| 2026-05-06 23:23 | 38.05288 | -113.43207 | 36113 ft | 517 kts | 206° |
| 2026-05-06 23:24 | 37.98701 | -113.46929 | 36031 ft | 519 kts | 206° |
| 2026-05-06 23:24 | 37.92047 | -113.50460 | 36070 ft | 518 kts | 203° |
| 2026-05-06 23:25 | 37.85288 | -113.53614 | 36100 ft | 518 kts | 201° |
| 2026-05-06 23:25 | 37.78475 | -113.56614 | 36067 ft | 519 kts | 200° |
| 2026-05-06 23:26 | 37.71690 | -113.59528 | 36109 ft | 517 kts | 200° |
| 2026-05-06 23:26 | 37.64880 | -113.62425 | 36114 ft | 516 kts | 201° |
| 2026-05-06 23:27 | 37.58088 | -113.65318 | 36101 ft | 515 kts | 200° |
| 2026-05-06 23:27 | 37.52947 | -113.67509 | 36101 ft | 516 kts | 200° |
| 2026-05-06 23:28 | 37.46146 | -113.70408 | 36034 ft | 517 kts | 199° |
| 2026-05-06 23:28 | 37.39365 | -113.73280 | 36014 ft | 518 kts | 200° |
| 2026-05-06 23:29 | 37.32546 | -113.76243 | 36005 ft | 519 kts | 200° |
| 2026-05-06 23:29 | 37.25736 | -113.79233 | 36025 ft | 518 kts | 201° |
| 2026-05-06 23:30 | 37.18938 | -113.82204 | 36028 ft | 517 kts | 201° |
| 2026-05-06 23:30 | 37.12155 | -113.85159 | 36002 ft | 514 kts | 201° |
| 2026-05-06 23:31 | 37.05528 | -113.88018 | 36021 ft | 498 kts | 201° |
| 2026-05-06 23:31 | 36.99092 | -113.90771 | 36014 ft | 481 kts | 200° |
| 2026-05-06 23:32 | 36.92813 | -113.93411 | 36017 ft | 473 kts | 199° |
| 2026-05-06 23:32 | 36.86583 | -113.95980 | 36021 ft | 470 kts | 200° |
| 2026-05-06 23:33 | 36.80385 | -113.98537 | 36030 ft | 470 kts | 199° |
| 2026-05-06 23:33 | 36.74168 | -114.01117 | 36025 ft | 472 kts | 199° |
| 2026-05-06 23:34 | 36.67939 | -114.03705 | 36032 ft | 472 kts | 200° |
| 2026-05-06 23:34 | 36.61762 | -114.06285 | 36039 ft | 471 kts | 200° |
| 2026-05-06 23:35 | 36.55544 | -114.08889 | 35982 ft | 472 kts | 200° |
| 2026-05-06 23:35 | 36.49337 | -114.11489 | 36001 ft | 470 kts | 200° |
| 2026-05-06 23:36 | 36.43154 | -114.14083 | 36011 ft | 469 kts | 200° |
| 2026-05-06 23:36 | 36.36965 | -114.16682 | 36010 ft | 470 kts | 200° |
| 2026-05-06 23:37 | 36.30813 | -114.19263 | 35986 ft | 471 kts | 200° |
| 2026-05-06 23:37 | 36.24614 | -114.21860 | 35996 ft | 469 kts | 200° |
| 2026-05-06 23:38 | 36.18428 | -114.24445 | 36003 ft | 469 kts | 200° |
| 2026-05-06 23:38 | 36.12252 | -114.27037 | 36011 ft | 468 kts | 203° |
| 2026-05-06 23:38 | 36.09357 | -114.28820 | 36007 ft | 464 kts | 215° |
| 2026-05-06 23:39 | 36.06757 | -114.31142 | 36013 ft | 460 kts | 223° |
| 2026-05-06 23:39 | 36.02151 | -114.36568 | 36024 ft | 455 kts | 231° |
| 2026-05-06 23:40 | 35.97987 | -114.42346 | 36028 ft | 451 kts | 233° |
| 2026-05-06 23:40 | 35.93928 | -114.48254 | 36003 ft | 451 kts | 233° |
| 2026-05-06 23:41 | 35.89866 | -114.54164 | 36013 ft | 453 kts | 232° |
| 2026-05-06 23:41 | 35.85751 | -114.60060 | 35992 ft | 454 kts | 232° |
| 2026-05-06 23:42 | 35.81590 | -114.65918 | 35995 ft | 454 kts | 232° |
| 2026-05-06 23:42 | 35.77419 | -114.71702 | 36000 ft | 455 kts | 231° |
| 2026-05-06 23:43 | 35.73182 | -114.77513 | 36001 ft | 457 kts | 231° |
| 2026-05-06 23:43 | 35.69869 | -114.82020 | 35999 ft | 456 kts | 231° |
| 2026-05-06 23:44 | 35.65630 | -114.87790 | 36001 ft | 453 kts | 231° |
| 2026-05-06 23:44 | 35.61427 | -114.93545 | 36000 ft | 451 kts | 232° |
| 2026-05-06 23:45 | 35.57240 | -114.99272 | 35999 ft | 450 kts | 231° |
| 2026-05-06 23:45 | 35.53072 | -115.04942 | 36000 ft | 451 kts | 231° |
| 2026-05-06 23:46 | 35.48828 | -115.10626 | 36006 ft | 452 kts | 231° |
| 2026-05-06 23:46 | 35.44540 | -115.16295 | 36010 ft | 454 kts | 231° |
| 2026-05-06 23:47 | 35.40226 | -115.21951 | 36014 ft | 454 kts | 231° |
| 2026-05-06 23:47 | 35.35912 | -115.27578 | 36014 ft | 453 kts | 230° |
| 2026-05-06 23:48 | 35.31621 | -115.33149 | 35992 ft | 448 kts | 230° |
| 2026-05-06 23:48 | 35.27425 | -115.38568 | 35990 ft | 430 kts | 230° |
| 2026-05-06 23:48 | 35.25377 | -115.41205 | 35839 ft | 426 kts | 231° |
| 2026-05-06 23:49 | 35.23345 | -115.43824 | 35693 ft | 422 kts | 231° |
| 2026-05-06 23:49 | 35.21327 | -115.46425 | 35424 ft | 422 kts | 231° |
| 2026-05-06 23:49 | 35.19306 | -115.49029 | 35158 ft | 422 kts | 231° |
| 2026-05-06 23:49 | 35.17281 | -115.51622 | 34901 ft | 422 kts | 231° |
| 2026-05-06 23:50 | 35.15281 | -115.54176 | 34663 ft | 421 kts | 231° |
| 2026-05-06 23:50 | 35.11238 | -115.59343 | 34160 ft | 420 kts | 232° |
| 2026-05-06 23:50 | 35.09226 | -115.61910 | 34115 ft | 415 kts | 232° |
| 2026-05-06 23:51 | 35.05280 | -115.66948 | 33941 ft | 407 kts | 232° |
| 2026-05-06 23:51 | 35.01412 | -115.71886 | 33861 ft | 398 kts | 232° |
| 2026-05-06 23:52 | 34.97635 | -115.76725 | 33772 ft | 389 kts | 234° |
| 2026-05-06 23:52 | 34.93862 | -115.81551 | 33391 ft | 401 kts | 231° |
| 2026-05-06 23:53 | 34.91925 | -115.84023 | 33126 ft | 406 kts | 232° |
| 2026-05-06 23:53 | 34.89978 | -115.86508 | 32925 ft | 416 kts | 233° |
| 2026-05-06 23:53 | 34.87959 | -115.89103 | 32737 ft | 429 kts | 230° |
| 2026-05-06 23:53 | 34.85862 | -115.91773 | 32609 ft | 444 kts | 228° |
| 2026-05-06 23:54 | 34.83676 | -115.94527 | 32498 ft | 461 kts | 227° |
| 2026-05-06 23:54 | 34.81400 | -115.97377 | 32395 ft | 477 kts | 227° |
| 2026-05-06 23:54 | 34.79050 | -116.00320 | 32302 ft | 492 kts | 229° |
| 2026-05-06 23:54 | 34.76653 | -116.03369 | 32187 ft | 504 kts | 227° |
| 2026-05-06 23:55 | 34.74204 | -116.06467 | 32071 ft | 511 kts | 227° |
| 2026-05-06 23:55 | 34.71726 | -116.09583 | 31977 ft | 513 kts | 226° |
| 2026-05-06 23:55 | 34.66794 | -116.15760 | 31833 ft | 505 kts | 226° |
| 2026-05-06 23:56 | 34.64353 | -116.18818 | 31619 ft | 506 kts | 227° |
| 2026-05-06 23:56 | 34.61935 | -116.21880 | 31185 ft | 512 kts | 227° |
| 2026-05-06 23:56 | 34.59474 | -116.25038 | 30710 ft | 519 kts | 227° |
| 2026-05-06 23:56 | 34.56991 | -116.28245 | 30279 ft | 524 kts | 226° |
| 2026-05-06 23:57 | 34.54489 | -116.31481 | 29938 ft | 525 kts | 226° |
| 2026-05-06 23:57 | 34.52004 | -116.34690 | 29832 ft | 519 kts | 226° |
| 2026-05-06 23:57 | 34.47088 | -116.40988 | 29766 ft | 511 kts | 225° |
| 2026-05-06 23:58 | 34.42317 | -116.47356 | 29338 ft | 511 kts | 234° |
| 2026-05-06 23:58 | 34.40273 | -116.50858 | 28963 ft | 506 kts | 237° |
| 2026-05-06 23:58 | 34.38464 | -116.54479 | 28688 ft | 502 kts | 241° |
| 2026-05-06 23:59 | 34.36845 | -116.58156 | 28501 ft | 501 kts | 244° |
| 2026-05-06 23:59 | 34.35335 | -116.61947 | 28307 ft | 498 kts | 250° |
| 2026-05-06 23:59 | 34.33909 | -116.65764 | 28049 ft | 498 kts | 250° |
| 2026-05-06 23:59 | 34.32483 | -116.69570 | 27791 ft | 497 kts | 250° |
| 2026-05-07 00:00 | 34.31055 | -116.73348 | 27517 ft | 489 kts | 249° |
| 2026-05-07 00:00 | 34.29639 | -116.77043 | 27133 ft | 481 kts | 248° |
| 2026-05-07 00:00 | 34.28228 | -116.80674 | 26710 ft | 474 kts | 248° |
| 2026-05-07 00:00 | 34.27297 | -116.83044 | 26425 ft | 469 kts | 248° |
| 2026-05-07 00:01 | 34.25419 | -116.87763 | 25773 ft | 461 kts | 248° |
| 2026-05-07 00:01 | 34.24028 | -116.91222 | 25271 ft | 455 kts | 247° |
| 2026-05-07 00:01 | 34.22675 | -116.94596 | 24777 ft | 449 kts | 248° |
| 2026-05-07 00:01 | 34.21431 | -116.98006 | 24305 ft | 437 kts | 250° |
| 2026-05-07 00:02 | 34.20326 | -117.01363 | 23833 ft | 424 kts | 252° |
| 2026-05-07 00:02 | 34.19329 | -117.04670 | 23338 ft | 413 kts | 253° |
| 2026-05-07 00:02 | 34.18417 | -117.07923 | 22810 ft | 405 kts | 254° |
| 2026-05-07 00:02 | 34.17568 | -117.11114 | 22266 ft | 400 kts | 255° |
| 2026-05-07 00:03 | 34.16722 | -117.14324 | 21711 ft | 396 kts | 255° |
| 2026-05-07 00:03 | 34.15888 | -117.17471 | 21159 ft | 391 kts | 255° |
| 2026-05-07 00:03 | 34.15059 | -117.20575 | 20566 ft | 387 kts | 255° |
| 2026-05-07 00:03 | 34.14231 | -117.23652 | 19944 ft | 383 kts | 255° |
| 2026-05-07 00:04 | 34.13407 | -117.26687 | 19319 ft | 378 kts | 255° |
| 2026-05-07 00:04 | 34.12586 | -117.29687 | 18694 ft | 374 kts | 255° |
| 2026-05-07 00:04 | 34.11781 | -117.32612 | 18076 ft | 370 kts | 254° |
| 2026-05-07 00:04 | 34.10979 | -117.35584 | 17442 ft | 366 kts | 255° |
| 2026-05-07 00:05 | 34.10224 | -117.38456 | 16824 ft | 362 kts | 255° |
| 2026-05-07 00:05 | 34.09480 | -117.41340 | 16200 ft | 358 kts | 255° |
| 2026-05-07 00:05 | 34.08800 | -117.44212 | 15574 ft | 354 kts | 257° |
| 2026-05-07 00:05 | 34.08238 | -117.47090 | 14961 ft | 351 kts | 259° |
| 2026-05-07 00:06 | 34.07741 | -117.49953 | 14382 ft | 346 kts | 260° |
| 2026-05-07 00:06 | 34.07275 | -117.52786 | 13805 ft | 342 kts | 261° |
| 2026-05-07 00:06 | 34.06823 | -117.55586 | 13230 ft | 339 kts | 261° |
| 2026-05-07 00:06 | 34.06374 | -117.58357 | 12654 ft | 335 kts | 261° |
| 2026-05-07 00:07 | 34.05924 | -117.61104 | 12149 ft | 330 kts | 260° |
| 2026-05-07 00:07 | 34.05641 | -117.62800 | 12079 ft | 319 kts | 260° |
| 2026-05-07 00:07 | 34.05284 | -117.64916 | 12049 ft | 310 kts | 260° |
| 2026-05-07 00:07 | 34.04849 | -117.67465 | 12012 ft | 310 kts | 260° |
| 2026-05-07 00:08 | 34.04417 | -117.69969 | 11887 ft | 308 kts | 259° |
| 2026-05-07 00:08 | 34.03979 | -117.72488 | 11720 ft | 308 kts | 259° |
| 2026-05-07 00:08 | 34.03535 | -117.75020 | 11381 ft | 309 kts | 259° |
| 2026-05-07 00:08 | 34.03090 | -117.77545 | 11004 ft | 306 kts | 259° |
| 2026-05-07 00:09 | 34.02646 | -117.80040 | 10628 ft | 303 kts | 259° |
| 2026-05-07 00:09 | 34.02205 | -117.82514 | 10239 ft | 301 kts | 259° |
| 2026-05-07 00:09 | 34.01764 | -117.84979 | 9813 ft | 299 kts | 259° |
| 2026-05-07 00:09 | 34.01325 | -117.87419 | 9386 ft | 297 kts | 259° |
| 2026-05-07 00:10 | 34.00888 | -117.89843 | 8936 ft | 295 kts | 259° |
| 2026-05-07 00:10 | 34.00454 | -117.92243 | 8447 ft | 292 kts | 258° |
| 2026-05-07 00:10 | 34.00022 | -117.94610 | 7972 ft | 294 kts | 259° |
| 2026-05-07 00:10 | 33.99588 | -117.97005 | 7509 ft | 291 kts | 259° |
| 2026-05-07 00:11 | 33.99160 | -117.99379 | 7034 ft | 288 kts | 259° |
| 2026-05-07 00:11 | 33.98736 | -118.01728 | 6558 ft | 286 kts | 259° |
| 2026-05-07 00:11 | 33.98315 | -118.04058 | 6083 ft | 284 kts | 259° |
| 2026-05-07 00:11 | 33.97864 | -118.06366 | 5606 ft | 282 kts | 254° |
| 2026-05-07 00:12 | 33.97256 | -118.08599 | 5110 ft | 278 kts | 251° |
| 2026-05-07 00:12 | 33.96676 | -118.10812 | 4534 ft | 276 kts | 254° |
| 2026-05-07 00:12 | 33.96202 | -118.13036 | 4048 ft | 270 kts | 258° |
| 2026-05-07 00:12 | 33.95890 | -118.15175 | 3914 ft | 248 kts | 262° |
| 2026-05-07 00:13 | 33.95716 | -118.17196 | 3571 ft | 238 kts | 266° |
| 2026-05-07 00:13 | 33.95620 | -118.19055 | 3262 ft | 213 kts | 268° |
| 2026-05-07 00:13 | 33.95532 | -118.20856 | 2968 ft | 216 kts | 267° |
| 2026-05-07 00:13 | 33.95405 | -118.22615 | 2733 ft | 208 kts | 265° |
| 2026-05-07 00:14 | 33.95245 | -118.24298 | 2424 ft | 195 kts | 263° |
| 2026-05-07 00:14 | 33.95060 | -118.25854 | 2092 ft | 183 kts | 259° |
| 2026-05-07 00:14 | 33.94887 | -118.27333 | 1851 ft | 170 kts | 261° |
| 2026-05-07 00:14 | 33.94737 | -118.28732 | 1649 ft | 167 kts | 260° |
| 2026-05-07 00:15 | 33.94595 | -118.30094 | 1432 ft | 162 kts | 261° |
| 2026-05-07 00:15 | 33.94446 | -118.31425 | 1178 ft | 160 kts | 261° |
| 2026-05-07 00:15 | 33.94305 | -118.32716 | 883 ft | 155 kts | 261° |
| 2026-05-07 00:15 | 33.94189 | -118.34039 | 748 ft | 169 kts | 263° |
| 2026-05-07 00:16 | 33.94053 | -118.35471 | 655 ft | 170 kts | 261° |
| 2026-05-07 00:16 | 33.93890 | -118.36786 | 365 ft | 153 kts | 259° |
| 2026-05-07 00:16 | 33.93735 | -118.38067 | 190 ft | 151 kts | 265° |
| 2026-05-07 00:16 | 33.93653 | -118.39270 | 162 ft | 128 kts | 258° |
| 2026-05-07 00:17 | 33.93532 | -118.40376 | 396 ft | 142 kts | 264° |
| 2026-05-07 00:17 | 33.93441 | -118.41653 | 971 ft | 164 kts | 267° |
| 2026-05-07 00:17 | 33.93408 | -118.43174 | 1320 ft | 205 kts | 268° |
| 2026-05-07 00:17 | 33.93357 | -118.44365 | 1380 ft | 222 kts | 265° |
| 2026-05-07 00:18 | 33.93208 | -118.46165 | 1369 ft | 200 kts | 261° |
| 2026-05-07 00:18 | 33.92999 | -118.47779 | 1407 ft | 196 kts | 257° |
| 2026-05-07 00:18 | 33.92570 | -118.49348 | 1504 ft | 201 kts | 250° |
| 2026-05-07 00:18 | 33.92078 | -118.50961 | 1594 ft | 208 kts | 249° |
| 2026-05-07 00:19 | 33.91590 | -118.52614 | 1728 ft | 209 kts | 252° |
| 2026-05-07 00:19 | 33.91055 | -118.54247 | 1924 ft | 212 kts | 250° |
| 2026-05-07 00:19 | 33.90486 | -118.55881 | 2194 ft | 210 kts | 249° |
| 2026-05-07 00:19 | 33.89733 | -118.57384 | 2488 ft | 213 kts | 229° |
| 2026-05-07 00:20 | 33.88466 | -118.58248 | 2815 ft | 217 kts | 197° |
| 2026-05-07 00:20 | 33.86963 | -118.58387 | 3277 ft | 214 kts | 178° |
| 2026-05-07 00:20 | 33.85530 | -118.57933 | 3868 ft | 215 kts | 157° |
| 2026-05-07 00:20 | 33.84353 | -118.56808 | 4451 ft | 222 kts | 126° |
| 2026-05-07 00:21 | 33.83688 | -118.55126 | 5028 ft | 230 kts | 108° |
| 2026-05-07 00:21 | 33.83500 | -118.53119 | 5064 ft | 251 kts | 84° |
| 2026-05-07 00:21 | 33.83763 | -118.51068 | 5051 ft | 242 kts | 75° |
| 2026-05-07 00:21 | 33.84131 | -118.49151 | 5039 ft | 231 kts | 73° |
| 2026-05-07 00:22 | 33.84444 | -118.47255 | 5048 ft | 231 kts | 80° |
| 2026-05-07 00:22 | 33.84643 | -118.45333 | 5051 ft | 232 kts | 83° |
| 2026-05-07 00:22 | 33.84815 | -118.43406 | 5051 ft | 232 kts | 83° |
| 2026-05-07 00:22 | 33.84981 | -118.41476 | 5051 ft | 232 kts | 83° |
| 2026-05-07 00:23 | 33.85145 | -118.39537 | 5090 ft | 236 kts | 83° |
| 2026-05-07 00:23 | 33.85306 | -118.37613 | 5036 ft | 230 kts | 82° |
| 2026-05-07 00:23 | 33.85459 | -118.35705 | 5049 ft | 230 kts | 82° |
| 2026-05-07 00:23 | 33.85605 | -118.33788 | 5051 ft | 230 kts | 82° |
| 2026-05-07 00:24 | 33.85745 | -118.31870 | 5050 ft | 230 kts | 82° |
| 2026-05-07 00:24 | 33.85884 | -118.29954 | 5052 ft | 230 kts | 82° |
| 2026-05-07 00:24 | 33.86021 | -118.28043 | 5054 ft | 230 kts | 82° |
| 2026-05-07 00:24 | 33.86160 | -118.26102 | 5104 ft | 240 kts | 83° |
| 2026-05-07 00:25 | 33.86316 | -118.24056 | 5052 ft | 242 kts | 83° |
| 2026-05-07 00:25 | 33.86469 | -118.22059 | 5019 ft | 241 kts | 82° |
| 2026-05-07 00:25 | 33.86621 | -118.20055 | 5048 ft | 240 kts | 82° |
| 2026-05-07 00:25 | 33.86773 | -118.18054 | 5053 ft | 240 kts | 82° |
| 2026-05-07 00:26 | 33.86926 | -118.16059 | 5052 ft | 240 kts | 82° |
| 2026-05-07 00:26 | 33.87090 | -118.14092 | 5049 ft | 239 kts | 79° |
| 2026-05-07 00:26 | 33.87712 | -118.12285 | 5037 ft | 232 kts | 52° |
| 2026-05-07 00:26 | 33.88932 | -118.11145 | 5055 ft | 221 kts | 21° |
| 2026-05-07 00:27 | 33.90394 | -118.10849 | 5060 ft | 207 kts | 359° |
| 2026-05-07 00:27 | 33.91800 | -118.10907 | 5067 ft | 198 kts | 354° |
| 2026-05-07 00:27 | 33.93178 | -118.11034 | 4904 ft | 200 kts | 355° |
| 2026-05-07 00:27 | 33.94492 | -118.11431 | 4561 ft | 195 kts | 331° |
| 2026-05-07 00:28 | 33.95405 | -118.12601 | 4215 ft | 194 kts | 302° |
| 2026-05-07 00:28 | 33.95830 | -118.14071 | 4302 ft | 173 kts | 279° |
| 2026-05-07 00:28 | 33.95921 | -118.15517 | 4493 ft | 190 kts | 271° |
| 2026-05-07 00:28 | 33.95909 | -118.17204 | 4166 ft | 199 kts | 268° |
| 2026-05-07 00:29 | 33.95816 | -118.18810 | 3786 ft | 187 kts | 264° |
| 2026-05-07 00:29 | 33.95666 | -118.20327 | 3410 ft | 174 kts | 262° |
| 2026-05-07 00:30 | 33.95162 | -118.24213 | 3025 ft | 151 kts | 263° |
| 2026-05-07 00:30 | 33.95016 | -118.25498 | 2761 ft | 159 kts | 264° |
| 2026-05-07 00:30 | 33.94882 | -118.26777 | 2353 ft | 150 kts | 264° |
| 2026-05-07 00:30 | 33.94785 | -118.28020 | 1934 ft | 150 kts | 264° |
| 2026-05-07 00:31 | 33.94753 | -118.29264 | 1522 ft | 146 kts | 268° |
| 2026-05-07 00:31 | 33.94721 | -118.30466 | 1181 ft | 145 kts | 264° |
| 2026-05-07 00:31 | 33.94647 | -118.31783 | 985 ft | 171 kts | 263° |
| 2026-05-07 00:31 | 33.94491 | -118.33234 | 1100 ft | 177 kts | 260° |
| 2026-05-07 00:32 | 33.94287 | -118.34627 | 947 ft | 159 kts | 256° |
| 2026-05-07 00:32 | 33.94063 | -118.35948 | 647 ft | 162 kts | 258° |
| 2026-05-07 00:32 | 33.93856 | -118.37235 | 321 ft | 158 kts | 262° |
| 2026-05-07 00:32 | 33.93714 | -118.38576 | 202 ft | 160 kts | 263° |
| 2026-05-07 00:33 | 33.93595 | -118.39750 | 144 ft | 121 kts | 261° |
| 2026-05-07 00:33 | 33.93514 | -118.40471 | 143 ft | 49 kts | 263° |
| 2026-05-07 00:33 | 33.93482 | -118.40774 | 143 ft | 26 kts | 262° |
| 2026-05-07 00:33 | 33.93465 | -118.40932 | 143 ft | 14 kts | 263° |
| 2026-05-07 00:34 | 33.93447 | -118.41114 | 143 ft | 26 kts | 265° |
| 2026-05-07 00:34 | 33.93474 | -118.41243 | 143 ft | 7 kts | 320° |
| 2026-05-07 00:34 | 33.93503 | -118.41276 | 143 ft | 8 kts | 310° |
| 2026-05-07 00:34 | 33.93527 | -118.41370 | 143 ft | 7 kts | 269° |
| 2026-05-07 00:35 | 33.93519 | -118.41466 | 143 ft | 13 kts | 264° |
| 2026-05-07 00:35 | 33.93512 | -118.41546 | 143 ft | 10 kts | 264° |
| 2026-05-07 00:35 | 33.93506 | -118.41618 | 143 ft | 0 kts | 264° |
| 2026-05-07 00:35 | 33.93502 | -118.41658 | 143 ft | 10 kts | 264° |
| 2026-05-07 00:36 | 33.93494 | -118.41741 | 143 ft | 10 kts | 264° |
| 2026-05-07 00:36 | 33.93492 | -118.41824 | 143 ft | 10 kts | 277° |
| 2026-05-07 00:36 | 33.93505 | -118.41873 | 143 ft | 3 kts | 300° |
| 2026-05-07 00:36 | 33.93509 | -118.41880 | 143 ft | 0 kts | 303° |
| 2026-05-07 00:38 | 33.93548 | -118.41913 | 143 ft | 10 kts | 333° |
| 2026-05-07 00:38 | 33.93595 | -118.41932 | 143 ft | 8 kts | 346° |
| 2026-05-07 00:38 | 33.93629 | -118.41942 | 143 ft | 1 kts | 347° |
| 2026-05-07 00:38 | 33.93631 | -118.41942 | 143 ft | 0 kts | 347° |
| 2026-05-07 00:39 | 33.93633 | -118.41943 | 143 ft | 0 kts | 347° |
| 2026-05-07 00:40 | 33.93670 | -118.41923 | 143 ft | 10 kts | 45° |
| 2026-05-07 00:40 | 33.93690 | -118.41843 | 143 ft | 10 kts | 78° |
| 2026-05-07 00:40 | 33.93700 | -118.41765 | 143 ft | 9 kts | 82° |
| 2026-05-07 00:40 | 33.93708 | -118.41683 | 143 ft | 10 kts | 84° |
| 2026-05-07 00:41 | 33.93715 | -118.41603 | 143 ft | 10 kts | 84° |
| 2026-05-07 00:41 | 33.93720 | -118.41546 | 143 ft | 5 kts | 84° |
| 2026-05-07 00:41 | 33.93724 | -118.41497 | 143 ft | 10 kts | 84° |
| 2026-05-07 00:41 | 33.93731 | -118.41419 | 143 ft | 2 kts | 84° |
| 2026-05-07 00:42 | 33.93736 | -118.41368 | 143 ft | 10 kts | 84° |
| 2026-05-07 00:42 | 33.93744 | -118.41284 | 143 ft | 10 kts | 83° |
| 2026-05-07 00:42 | 33.93751 | -118.41201 | 143 ft | 10 kts | 83° |
| 2026-05-07 00:43 | 33.93760 | -118.41117 | 143 ft | 10 kts | 83° |
| 2026-05-07 00:43 | 33.93764 | -118.41071 | 143 ft | 9 kts | 82° |
| 2026-05-07 00:43 | 33.93778 | -118.40990 | 143 ft | 10 kts | 72° |
| 2026-05-07 00:43 | 33.93829 | -118.40944 | 143 ft | 10 kts | 350° |
| 2026-05-07 00:44 | 33.93860 | -118.41008 | 143 ft | 10 kts | 268° |
| 2026-05-07 00:44 | 33.93858 | -118.41093 | 143 ft | 10 kts | 274° |
| 2026-05-07 00:44 | 33.93898 | -118.41156 | 143 ft | 10 kts | 329° |
| 2026-05-07 00:44 | 33.93931 | -118.41167 | 143 ft | 0 kts | 354° |
| 2026-05-07 00:45 | 33.93972 | -118.41172 | 143 ft | 7 kts | 354° |
| 2026-05-07 00:45 | 33.93985 | -118.41174 | 143 ft | 5 kts | 353° |
| 2026-05-07 00:45 | 33.94087 | -118.41197 | 143 ft | 17 kts | 348° |
| 2026-05-07 00:46 | 33.94182 | -118.41220 | 143 ft | 11 kts | 348° |
| 2026-05-07 00:46 | 33.94236 | -118.41233 | 143 ft | 6 kts | 349° |
| 2026-05-07 00:46 | 33.94311 | -118.41248 | 143 ft | 12 kts | 351° |
| 2026-05-07 00:46 | 33.94378 | -118.41248 | 143 ft | 9 kts | 32° |
| 2026-05-07 00:47 | 33.94393 | -118.41183 | 143 ft | 5 kts | 86° |
| 2026-05-07 00:47 | 33.94395 | -118.41164 | 143 ft | 1 kts | 83° |
| 2026-05-07 00:47 | 33.94395 | -118.41163 | 143 ft | 0 kts | 83° |